Observation data for Caprock Canyons on 09/11/2017      Previous  Date  Next       Current Mesonet Observations  Soil Data  Daily Summary Page  Observations in Plain Language
KQU1 110500Z 21007KT 18/10 A3024 RMK A01 T01810097  RH  058%=      5-min Rain = 0
KQU1 110501Z 21007KT 18/10 A3024 RMK A01 T01800097  RH  058%=      5-min Rain = 0
KQU1 110502Z 20007KT 18/10 A3024 RMK A01 T01800097  RH  058%=      5-min Rain = 0
KQU1 110503Z 20007KT 18/10 A3024 RMK A01 T01800097  RH  058%=      5-min Rain = 0
KQU1 110504Z 19007KT 18/10 A3024 RMK A01 T01820096  RH  057%=      5-min Rain = 0
KQU1 110505Z 20008KT 18/10 A3024 RMK A01 T01830096  RH  057%=      5-min Rain = 0
KQU1 110506Z 20008KT 18/10 A3024 RMK A01 T01840096  RH  056%=      5-min Rain = 0
KQU1 110507Z 20008KT 18/10 A3024 RMK A01 T01840096  RH  056%=      5-min Rain = 0
KQU1 110508Z 20008KT 18/10 A3024 RMK A01 T01840096  RH  056%=      5-min Rain = 0
KQU1 110509Z 20008KT 18/10 A3024 RMK A01 T01840096  RH  056%=      5-min Rain = 0
KQU1 110510Z 20007KT 18/10 A3024 RMK A01 T01830096  RH  057%=      5-min Rain = 0
KQU1 110511Z 20008KT 18/10 A3024 RMK A01 T01830096  RH  057%=      5-min Rain = 0
KQU1 110512Z 20007KT 18/10 A3024 RMK A01 T01830096  RH  057%=      5-min Rain = 0
KQU1 110513Z 20007KT 18/10 A3024 RMK A01 T01830096  RH  057%=      5-min Rain = 0
KQU1 110514Z 20007KT 18/10 A3024 RMK A01 T01830096  RH  057%=      5-min Rain = 0
KQU1 110515Z 21008KT 18/10 A3024 RMK A01 T01820096  RH  057%=      5-min Rain = 0
KQU1 110516Z 20008KT 18/10 A3024 RMK A01 T01820096  RH  057%=      5-min Rain = 0
KQU1 110517Z 20007KT 18/10 A3024 RMK A01 T01810096  RH  057%=      5-min Rain = 0
KQU1 110518Z 20007KT 18/10 A3024 RMK A01 T01810096  RH  057%=      5-min Rain = 0
KQU1 110519Z 20007KT 18/10 A3024 RMK A01 T01800096  RH  058%=      5-min Rain = 0
KQU1 110520Z 20007KT 18/10 A3024 RMK A01 T01800096  RH  058%=      5-min Rain = 0
KQU1 110521Z 20008KT 18/10 A3024 RMK A01 T01800096  RH  058%=      5-min Rain = 0
KQU1 110522Z 20007KT 18/10 A3024 RMK A01 T01810095  RH  057%=      5-min Rain = 0
KQU1 110523Z 20007KT 18/10 A3024 RMK A01 T01810095  RH  057%=      5-min Rain = 0
KQU1 110524Z 20008KT 18/10 A3024 RMK A01 T01810095  RH  057%=      5-min Rain = 0
KQU1 110525Z 20008KT 18/10 A3024 RMK A01 T01810095  RH  057%=      5-min Rain = 0
KQU1 110526Z 20008KT 18/10 A3024 RMK A01 T01810095  RH  057%=      5-min Rain = 0
KQU1 110527Z 20008KT 18/10 A3024 RMK A01 T01810095  RH  057%=      5-min Rain = 0
KQU1 110528Z 20008KT 18/10 A3024 RMK A01 T01810095  RH  057%=      5-min Rain = 0
KQU1 110529Z 20007KT 18/10 A3024 RMK A01 T01810095  RH  057%=      5-min Rain = 0
KQU1 110530Z 20007KT 18/10 A3024 RMK A01 T01800095  RH  057%=      5-min Rain = 0
KQU1 110531Z 20008KT 18/10 A3024 RMK A01 T01800095  RH  058%=      5-min Rain = 0
KQU1 110532Z 20008KT 18/10 A3024 RMK A01 T01800095  RH  058%=      5-min Rain = 0
KQU1 110533Z 20008KT 18/10 A3024 RMK A01 T01790095  RH  058%=      5-min Rain = 0
KQU1 110534Z 20008KT 18/10 A3024 RMK A01 T01790095  RH  058%=      5-min Rain = 0
KQU1 110535Z 20008KT 18/10 A3024 RMK A01 T01790095  RH  058%=      5-min Rain = 0
KQU1 110536Z 20008KT 18/10 A3024 RMK A01 T01780095  RH  058%=      5-min Rain = 0
KQU1 110537Z 20008KT 18/10 A3024 RMK A01 T01780095  RH  058%=      5-min Rain = 0
KQU1 110538Z 20008KT 18/10 A3024 RMK A01 T01780095  RH  058%=      5-min Rain = 0
KQU1 110539Z 20008KT 18/10 A3024 RMK A01 T01780095  RH  058%=      5-min Rain = 0
KQU1 110540Z 20009KT 18/10 A3024 RMK A01 T01790095  RH  058%=      5-min Rain = 0
KQU1 110541Z 20008KT 18/10 A3024 RMK A01 T01790095  RH  058%=      5-min Rain = 0
KQU1 110542Z 20008KT 18/10 A3024 RMK A01 T01800095  RH  057%=      5-min Rain = 0
KQU1 110543Z 20008KT 18/09 A3024 RMK A01 T01810094  RH  057%=      5-min Rain = 0
KQU1 110544Z 20008KT 18/09 A3024 RMK A01 T01820094  RH  057%=      5-min Rain = 0
KQU1 110545Z 20008KT 18/09 A3024 RMK A01 T01820094  RH  057%=      5-min Rain = 0
KQU1 110546Z 20008KT 18/09 A3024 RMK A01 T01810094  RH  057%=      5-min Rain = 0
KQU1 110547Z 21008KT 18/09 A3024 RMK A01 T01810094  RH  057%=      5-min Rain = 0
KQU1 110548Z 20008KT 18/09 A3024 RMK A01 T01810094  RH  057%=      5-min Rain = 0
KQU1 110549Z 20008KT 18/09 A3024 RMK A01 T01810094  RH  057%=      5-min Rain = 0
KQU1 110550Z 20008KT 18/09 A3023 RMK A01 T01810094  RH  057%=      5-min Rain = 0
KQU1 110551Z 20008KT 18/09 A3023 RMK A01 T01810094  RH  057%=      5-min Rain = 0
KQU1 110552Z 20009KT 18/09 A3023 RMK A01 T01800094  RH  057%=      5-min Rain = 0
KQU1 110553Z 20008KT 18/09 A3023 RMK A01 T01800094  RH  057%=      5-min Rain = 0
KQU1 110554Z 20008KT 18/09 A3023 RMK A01 T01800094  RH  057%=      5-min Rain = 0
KQU1 110555Z 20008KT 18/09 A3023 RMK A01 T01800094  RH  057%=      5-min Rain = 0
KQU1 110556Z 20009KT 18/09 A3023 RMK A01 T01790094  RH  057%=      5-min Rain = 0
KQU1 110557Z 20009KT 18/09 A3023 RMK A01 T01790094  RH  057%=      5-min Rain = 0
KQU1 110558Z 20008KT 18/09 A3023 RMK A01 T01790094  RH  057%=      5-min Rain = 0
KQU1 110559Z 20008KT 18/09 A3023 RMK A01 T01790094  RH  057%=      5-min Rain = 0
KQU1 110600Z 20009KT 18/09 A3023 RMK A01 T01800094  RH  057%=      5-min Rain = 0
KQU1 110601Z 20008KT 18/09 A3023 RMK A01 T01800094  RH  057%=      5-min Rain = 0
KQU1 110602Z 19007KT 18/09 A3023 RMK A01 T01800094  RH  057%=      5-min Rain = 0
KQU1 110603Z 19007KT 18/09 A3023 RMK A01 T01800093  RH  057%=      5-min Rain = 0
KQU1 110604Z 19008KT 18/09 A3023 RMK A01 T01810093  RH  057%=      5-min Rain = 0
KQU1 110605Z 19007KT 18/09 A3024 RMK A01 T01810093  RH  057%=      5-min Rain = 0
KQU1 110606Z 19007KT 18/09 A3024 RMK A01 T01800093  RH  057%=      5-min Rain = 0
KQU1 110607Z 19007KT 18/09 A3024 RMK A01 T01800093  RH  057%=      5-min Rain = 0
KQU1 110608Z 19008KT 18/09 A3023 RMK A01 T01790093  RH  057%=      5-min Rain = 0
KQU1 110609Z 18007KT 18/09 A3023 RMK A01 T01790093  RH  057%=      5-min Rain = 0
KQU1 110610Z 18008KT 18/09 A3023 RMK A01 T01790093  RH  057%=      5-min Rain = 0
KQU1 110611Z 18008KT 18/09 A3023 RMK A01 T01790093  RH  057%=      5-min Rain = 0
KQU1 110612Z 18008KT 18/09 A3023 RMK A01 T01790093  RH  057%=      5-min Rain = 0
KQU1 110613Z 18007KT 18/09 A3023 RMK A01 T01800093  RH  057%=      5-min Rain = 0
KQU1 110614Z 18007KT 18/09 A3023 RMK A01 T01800093  RH  057%=      5-min Rain = 0
KQU1 110615Z 18007KT 18/09 A3023 RMK A01 T01800093  RH  057%=      5-min Rain = 0
KQU1 110616Z 18006KT 18/09 A3023 RMK A01 T01800094  RH  057%=      5-min Rain = 0
KQU1 110617Z 19006KT 18/09 A3023 RMK A01 T01790094  RH  057%=      5-min Rain = 0
KQU1 110618Z 18007KT 18/09 A3023 RMK A01 T01790093  RH  057%=      5-min Rain = 0
KQU1 110619Z 18007KT 18/09 A3023 RMK A01 T01790093  RH  057%=      5-min Rain = 0
KQU1 110620Z 18007KT 18/09 A3023 RMK A01 T01800093  RH  057%=      5-min Rain = 0
KQU1 110621Z 19006KT 18/09 A3023 RMK A01 T01800093  RH  057%=      5-min Rain = 0
KQU1 110622Z 19007KT 18/09 A3023 RMK A01 T01790093  RH  057%=      5-min Rain = 0
KQU1 110623Z 19006KT 18/09 A3023 RMK A01 T01780093  RH  058%=      5-min Rain = 0
KQU1 110624Z 19007KT 18/09 A3023 RMK A01 T01770093  RH  058%=      5-min Rain = 0
KQU1 110625Z 19006KT 18/09 A3023 RMK A01 T01750093  RH  059%=      5-min Rain = 0
KQU1 110626Z 19006KT 17/09 A3023 RMK A01 T01740093  RH  059%=      5-min Rain = 0
KQU1 110627Z 19006KT 17/09 A3023 RMK A01 T01740093  RH  059%=      5-min Rain = 0
KQU1 110628Z 19006KT 17/09 A3023 RMK A01 T01740093  RH  059%=      5-min Rain = 0
KQU1 110629Z 19006KT 17/09 A3023 RMK A01 T01730093  RH  059%=      5-min Rain = 0
KQU1 110630Z 19007KT 17/09 A3023 RMK A01 T01720093  RH  060%=      5-min Rain = 0
KQU1 110631Z 19006KT 17/09 A3023 RMK A01 T01710093  RH  060%=      5-min Rain = 0
KQU1 110632Z 19006KT 17/09 A3023 RMK A01 T01710093  RH  060%=      5-min Rain = 0
KQU1 110633Z 20006KT 17/09 A3023 RMK A01 T01710093  RH  060%=      5-min Rain = 0
KQU1 110634Z 20006KT 17/09 A3023 RMK A01 T01700093  RH  060%=      5-min Rain = 0
KQU1 110635Z 20006KT 17/09 A3023 RMK A01 T01690093  RH  061%=      5-min Rain = 0
KQU1 110636Z 19006KT 17/09 A3023 RMK A01 T01690093  RH  061%=      5-min Rain = 0
KQU1 110637Z 19006KT 17/09 A3023 RMK A01 T01690093  RH  061%=      5-min Rain = 0
KQU1 110638Z 18007KT 17/09 A3023 RMK A01 T01690093  RH  061%=      5-min Rain = 0
KQU1 110639Z 19006KT 17/09 A3023 RMK A01 T01700093  RH  060%=      5-min Rain = 0
KQU1 110640Z 18006KT 17/09 A3023 RMK A01 T01710093  RH  060%=      5-min Rain = 0
KQU1 110641Z 18006KT 17/09 A3023 RMK A01 T01720093  RH  060%=      5-min Rain = 0
KQU1 110642Z 18006KT 17/09 A3023 RMK A01 T01720093  RH  059%=      5-min Rain = 0
KQU1 110643Z 18005KT 17/09 A3023 RMK A01 T01730093  RH  059%=      5-min Rain = 0
KQU1 110644Z 18005KT 17/09 A3023 RMK A01 T01720093  RH  059%=      5-min Rain = 0
KQU1 110645Z 18005KT 17/09 A3023 RMK A01 T01720092  RH  059%=      5-min Rain = 0
KQU1 110646Z 18005KT 17/09 A3023 RMK A01 T01720092  RH  059%=      5-min Rain = 0
KQU1 110647Z 18005KT 17/09 A3023 RMK A01 T01710092  RH  060%=      5-min Rain = 0
KQU1 110648Z 19005KT 17/09 A3023 RMK A01 T01710092  RH  060%=      5-min Rain = 0
KQU1 110649Z 19005KT 17/09 A3023 RMK A01 T01700093  RH  060%=      5-min Rain = 0
KQU1 110650Z 19005KT 17/09 A3023 RMK A01 T01700092  RH  060%=      5-min Rain = 0
KQU1 110651Z 19005KT 17/09 A3023 RMK A01 T01700092  RH  060%=      5-min Rain = 0
KQU1 110652Z 19005KT 17/09 A3023 RMK A01 T01700092  RH  060%=      5-min Rain = 0
KQU1 110653Z 19005KT 17/09 A3023 RMK A01 T01700092  RH  060%=      5-min Rain = 0
KQU1 110654Z 20005KT 17/09 A3023 RMK A01 T01690092  RH  061%=      5-min Rain = 0
KQU1 110655Z 19005KT 17/09 A3023 RMK A01 T01680092  RH  061%=      5-min Rain = 0
KQU1 110656Z 19005KT 17/09 A3023 RMK A01 T01680092  RH  061%=      5-min Rain = 0
KQU1 110657Z 19005KT 17/09 A3023 RMK A01 T01670092  RH  061%=      5-min Rain = 0
KQU1 110658Z 19005KT 17/09 A3023 RMK A01 T01660092  RH  062%=      5-min Rain = 0
KQU1 110659Z 18005KT 17/09 A3023 RMK A01 T01670092  RH  061%=      5-min Rain = 0
KQU1 110700Z 18005KT 17/09 A3023 RMK A01 T01680092  RH  061%=      5-min Rain = 0
KQU1 110701Z 18004KT 17/09 A3023 RMK A01 T01690092  RH  061%=      5-min Rain = 0
KQU1 110702Z 19005KT 17/09 A3023 RMK A01 T01690092  RH  061%=      5-min Rain = 0
KQU1 110703Z 19005KT 17/09 A3023 RMK A01 T01690092  RH  061%=      5-min Rain = 0
KQU1 110704Z 20005KT 17/09 A3023 RMK A01 T01680092  RH  061%=      5-min Rain = 0
KQU1 110705Z 19005KT 17/09 A3023 RMK A01 T01670092  RH  061%=      5-min Rain = 0
KQU1 110706Z 19004KT 17/09 A3023 RMK A01 T01670092  RH  061%=      5-min Rain = 0
KQU1 110707Z 20004KT 17/09 A3023 RMK A01 T01660092  RH  062%=      5-min Rain = 0
KQU1 110708Z 20005KT 17/09 A3023 RMK A01 T01650092  RH  062%=      5-min Rain = 0
KQU1 110709Z 19005KT 16/09 A3023 RMK A01 T01640092  RH  062%=      5-min Rain = 0
KQU1 110710Z 20005KT 16/09 A3023 RMK A01 T01630092  RH  063%=      5-min Rain = 0
KQU1 110711Z 20005KT 16/09 A3023 RMK A01 T01620092  RH  063%=      5-min Rain = 0
KQU1 110712Z 20005KT 16/09 A3023 RMK A01 T01620093  RH  063%=      5-min Rain = 0
KQU1 110713Z 20005KT 16/09 A3023 RMK A01 T01610093  RH  064%=      5-min Rain = 0
KQU1 110714Z 20005KT 16/09 A3023 RMK A01 T01610093  RH  064%=      5-min Rain = 0
KQU1 110715Z 20005KT 16/09 A3023 RMK A01 T01610093  RH  064%=      5-min Rain = 0
KQU1 110716Z 20005KT 16/09 A3023 RMK A01 T01600093  RH  064%=      5-min Rain = 0
KQU1 110717Z 20005KT 16/09 A3023 RMK A01 T01600093  RH  064%=      5-min Rain = 0
KQU1 110718Z 20005KT 16/09 A3023 RMK A01 T01590093  RH  064%=      5-min Rain = 0
KQU1 110719Z 21005KT 16/09 A3023 RMK A01 T01590093  RH  065%=      5-min Rain = 0
KQU1 110720Z 21005KT 16/09 A3023 RMK A01 T01580093  RH  065%=      5-min Rain = 0
KQU1 110721Z 20006KT 16/09 A3023 RMK A01 T01580093  RH  065%=      5-min Rain = 0
KQU1 110722Z 20006KT 16/09 A3023 RMK A01 T01570093  RH  065%=      5-min Rain = 0
KQU1 110723Z 20006KT 16/09 A3023 RMK A01 T01570093  RH  066%=      5-min Rain = 0
KQU1 110724Z 20006KT 16/09 A3022 RMK A01 T01570093  RH  066%=      5-min Rain = 0
KQU1 110725Z 20006KT 16/09 A3022 RMK A01 T01570093  RH  066%=      5-min Rain = 0
KQU1 110726Z 21006KT 16/09 A3022 RMK A01 T01570093  RH  066%=      5-min Rain = 0
KQU1 110727Z 21006KT 16/09 A3023 RMK A01 T01570093  RH  066%=      5-min Rain = 0
KQU1 110728Z 21006KT 16/09 A3022 RMK A01 T01570093  RH  066%=      5-min Rain = 0
KQU1 110729Z 21006KT 16/09 A3022 RMK A01 T01570093  RH  066%=      5-min Rain = 0
KQU1 110730Z 21006KT 16/09 A3022 RMK A01 T01570093  RH  066%=      5-min Rain = 0
KQU1 110731Z 20006KT 16/09 A3022 RMK A01 T01560093  RH  066%=      5-min Rain = 0
KQU1 110732Z 20006KT 16/09 A3022 RMK A01 T01570093  RH  066%=      5-min Rain = 0
KQU1 110733Z 20006KT 16/09 A3022 RMK A01 T01560093  RH  066%=      5-min Rain = 0
KQU1 110734Z 20006KT 16/09 A3022 RMK A01 T01560093  RH  066%=      5-min Rain = 0
KQU1 110735Z 20006KT 16/09 A3022 RMK A01 T01560093  RH  066%=      5-min Rain = 0
KQU1 110736Z 20006KT 16/09 A3022 RMK A01 T01560093  RH  066%=      5-min Rain = 0
KQU1 110737Z 20006KT 16/09 A3022 RMK A01 T01550093  RH  066%=      5-min Rain = 0
KQU1 110738Z 20006KT 16/09 A3022 RMK A01 T01550093  RH  067%=      5-min Rain = 0
KQU1 110739Z 21006KT 16/09 A3022 RMK A01 T01550093  RH  067%=      5-min Rain = 0
KQU1 110740Z 21006KT 16/09 A3022 RMK A01 T01550093  RH  067%=      5-min Rain = 0
KQU1 110741Z 21006KT 16/09 A3022 RMK A01 T01550093  RH  067%=      5-min Rain = 0
KQU1 110742Z 21006KT 16/09 A3022 RMK A01 T01550093  RH  067%=      5-min Rain = 0
KQU1 110743Z 21006KT 16/09 A3022 RMK A01 T01550093  RH  067%=      5-min Rain = 0
KQU1 110744Z 21006KT 15/09 A3022 RMK A01 T01540093  RH  067%=      5-min Rain = 0
KQU1 110745Z 21006KT 15/09 A3022 RMK A01 T01540093  RH  067%=      5-min Rain = 0
KQU1 110746Z 21006KT 15/09 A3022 RMK A01 T01540093  RH  067%=      5-min Rain = 0
KQU1 110747Z 20006KT 15/09 A3022 RMK A01 T01540093  RH  067%=      5-min Rain = 0
KQU1 110748Z 20006KT 15/09 A3022 RMK A01 T01540093  RH  067%=      5-min Rain = 0
KQU1 110749Z 20006KT 16/09 A3022 RMK A01 T01550093  RH  067%=      5-min Rain = 0
KQU1 110750Z 21006KT 16/09 A3022 RMK A01 T01550093  RH  067%=      5-min Rain = 0
KQU1 110751Z 20006KT 16/09 A3022 RMK A01 T01550093  RH  067%=      5-min Rain = 0
KQU1 110752Z 20006KT 16/09 A3022 RMK A01 T01550093  RH  067%=      5-min Rain = 0
KQU1 110753Z 20006KT 16/09 A3022 RMK A01 T01550093  RH  067%=      5-min Rain = 0
KQU1 110754Z 20006KT 16/09 A3022 RMK A01 T01550093  RH  067%=      5-min Rain = 0
KQU1 110755Z 20006KT 15/09 A3022 RMK A01 T01540093  RH  067%=      5-min Rain = 0
KQU1 110756Z 20006KT 15/09 A3021 RMK A01 T01540093  RH  067%=      5-min Rain = 0
KQU1 110757Z 20006KT 15/09 A3021 RMK A01 T01540093  RH  067%=      5-min Rain = 0
KQU1 110758Z 20006KT 15/09 A3021 RMK A01 T01540093  RH  067%=      5-min Rain = 0
KQU1 110759Z 20006KT 15/09 A3021 RMK A01 T01530093  RH  067%=      5-min Rain = 0
KQU1 110800Z 20006KT 15/09 A3021 RMK A01 T01530093  RH  068%=      5-min Rain = 0
KQU1 110801Z 20007KT 15/09 A3021 RMK A01 T01520093  RH  068%=      5-min Rain = 0
KQU1 110802Z 20007KT 15/09 A3021 RMK A01 T01520093  RH  068%=      5-min Rain = 0
KQU1 110803Z 20007KT 15/09 A3021 RMK A01 T01520093  RH  068%=      5-min Rain = 0
KQU1 110804Z 20007KT 15/09 A3021 RMK A01 T01520093  RH  068%=      5-min Rain = 0
KQU1 110805Z 20007KT 15/09 A3021 RMK A01 T01520093  RH  068%=      5-min Rain = 0
KQU1 110806Z 20007KT 15/09 A3021 RMK A01 T01520093  RH  068%=      5-min Rain = 0
KQU1 110807Z 20007KT 15/09 A3021 RMK A01 T01510093  RH  068%=      5-min Rain = 0
KQU1 110808Z 20007KT 15/09 A3021 RMK A01 T01510093  RH  068%=      5-min Rain = 0
KQU1 110809Z 20007KT 15/09 A3021 RMK A01 T01510093  RH  069%=      5-min Rain = 0
KQU1 110810Z 20007KT 15/09 A3021 RMK A01 T01500093  RH  069%=      5-min Rain = 0
KQU1 110811Z 20007KT 15/09 A3021 RMK A01 T01500093  RH  069%=      5-min Rain = 0
KQU1 110812Z 20007KT 15/09 A3021 RMK A01 T01500093  RH  069%=      5-min Rain = 0
KQU1 110813Z 20007KT 15/09 A3021 RMK A01 T01500093  RH  069%=      5-min Rain = 0
KQU1 110814Z 21007KT 15/09 A3021 RMK A01 T01500093  RH  069%=      5-min Rain = 0
KQU1 110815Z 21007KT 15/09 A3021 RMK A01 T01500093  RH  069%=      5-min Rain = 0
KQU1 110816Z 21007KT 15/09 A3021 RMK A01 T01500093  RH  069%=      5-min Rain = 0
KQU1 110817Z 21007KT 15/09 A3021 RMK A01 T01500093  RH  069%=      5-min Rain = 0
KQU1 110818Z 21006KT 15/09 A3021 RMK A01 T01500093  RH  069%=      5-min Rain = 0
KQU1 110819Z 21007KT 15/09 A3021 RMK A01 T01500093  RH  069%=      5-min Rain = 0
KQU1 110820Z 21007KT 15/09 A3021 RMK A01 T01500093  RH  069%=      5-min Rain = 0
KQU1 110821Z 21007KT 15/09 A3021 RMK A01 T01500093  RH  069%=      5-min Rain = 0
KQU1 110822Z 21007KT 15/09 A3021 RMK A01 T01500094  RH  069%=      5-min Rain = 0
KQU1 110823Z 21007KT 15/09 A3021 RMK A01 T01500094  RH  069%=      5-min Rain = 0
KQU1 110824Z 21007KT 15/09 A3021 RMK A01 T01500094  RH  069%=      5-min Rain = 0
KQU1 110825Z 21007KT 15/09 A3021 RMK A01 T01510094  RH  069%=      5-min Rain = 0
KQU1 110826Z 21007KT 15/09 A3021 RMK A01 T01510094  RH  069%=      5-min Rain = 0
KQU1 110827Z 21007KT 15/09 A3021 RMK A01 T01510094  RH  068%=      5-min Rain = 0
KQU1 110828Z 21008KT 15/09 A3021 RMK A01 T01520094  RH  068%=      5-min Rain = 0
KQU1 110829Z 21008KT 15/09 A3021 RMK A01 T01520094  RH  068%=      5-min Rain = 0
KQU1 110830Z 21008KT 15/09 A3021 RMK A01 T01520094  RH  068%=      5-min Rain = 0
KQU1 110831Z 21008KT 15/09 A3021 RMK A01 T01530094  RH  068%=      5-min Rain = 0
KQU1 110832Z 21007KT 15/09 A3021 RMK A01 T01530094  RH  068%=      5-min Rain = 0
KQU1 110833Z 21007KT 15/09 A3021 RMK A01 T01540094  RH  068%=      5-min Rain = 0
KQU1 110834Z 21007KT 15/09 A3021 RMK A01 T01540094  RH  067%=      5-min Rain = 0
KQU1 110835Z 21007KT 15/09 A3021 RMK A01 T01540094  RH  067%=      5-min Rain = 0
KQU1 110836Z 21007KT 15/09 A3021 RMK A01 T01540094  RH  067%=      5-min Rain = 0
KQU1 110837Z 21007KT 15/09 A3021 RMK A01 T01540094  RH  067%=      5-min Rain = 0
KQU1 110838Z 21007KT 15/09 A3021 RMK A01 T01540094  RH  067%=      5-min Rain = 0
KQU1 110839Z 21007KT 15/09 A3021 RMK A01 T01540094  RH  067%=      5-min Rain = 0
KQU1 110840Z 21007KT 15/09 A3021 RMK A01 T01540094  RH  068%=      5-min Rain = 0
KQU1 110841Z 21007KT 15/09 A3021 RMK A01 T01530094  RH  068%=      5-min Rain = 0
KQU1 110842Z 21007KT 15/09 A3021 RMK A01 T01540094  RH  068%=      5-min Rain = 0
KQU1 110843Z 21007KT 15/09 A3021 RMK A01 T01540094  RH  068%=      5-min Rain = 0
KQU1 110844Z 21007KT 15/09 A3021 RMK A01 T01540094  RH  067%=      5-min Rain = 0
KQU1 110845Z 21006KT 15/09 A3021 RMK A01 T01540094  RH  067%=      5-min Rain = 0
KQU1 110846Z 21006KT 15/09 A3021 RMK A01 T01540094  RH  067%=      5-min Rain = 0
KQU1 110847Z 22006KT 15/09 A3021 RMK A01 T01540094  RH  067%=      5-min Rain = 0
KQU1 110848Z 22006KT 15/09 A3021 RMK A01 T01540094  RH  068%=      5-min Rain = 0
KQU1 110849Z 21007KT 15/09 A3021 RMK A01 T01540094  RH  068%=      5-min Rain = 0
KQU1 110850Z 21007KT 15/09 A3021 RMK A01 T01540094  RH  067%=      5-min Rain = 0
KQU1 110851Z 21007KT 15/09 A3021 RMK A01 T01540094  RH  067%=      5-min Rain = 0
KQU1 110852Z 21006KT 15/09 A3021 RMK A01 T01540094  RH  067%=      5-min Rain = 0
KQU1 110853Z 21006KT 15/09 A3021 RMK A01 T01540094  RH  067%=      5-min Rain = 0
KQU1 110854Z 21006KT 15/09 A3021 RMK A01 T01540094  RH  068%=      5-min Rain = 0
KQU1 110855Z 21006KT 15/09 A3021 RMK A01 T01540094  RH  068%=      5-min Rain = 0
KQU1 110856Z 21006KT 15/09 A3021 RMK A01 T01530094  RH  068%=      5-min Rain = 0
KQU1 110857Z 21006KT 15/09 A3021 RMK A01 T01530094  RH  068%=      5-min Rain = 0
KQU1 110858Z 21006KT 15/09 A3021 RMK A01 T01530094  RH  068%=      5-min Rain = 0
KQU1 110859Z 21006KT 15/09 A3021 RMK A01 T01530094  RH  068%=      5-min Rain = 0
KQU1 110900Z 21006KT 15/09 A3021 RMK A01 T01540094  RH  068%=      5-min Rain = 0
KQU1 110901Z 21006KT 15/09 A3021 RMK A01 T01540094  RH  067%=      5-min Rain = 0
KQU1 110902Z 21006KT 15/09 A3021 RMK A01 T01540094  RH  067%=      5-min Rain = 0
KQU1 110903Z 21006KT 15/09 A3021 RMK A01 T01540094  RH  067%=      5-min Rain = 0
KQU1 110904Z 21006KT 15/09 A3021 RMK A01 T01540094  RH  067%=      5-min Rain = 0
KQU1 110905Z 21005KT 15/09 A3021 RMK A01 T01540094  RH  067%=      5-min Rain = 0
KQU1 110906Z 21005KT 15/09 A3021 RMK A01 T01540094  RH  068%=      5-min Rain = 0
KQU1 110907Z 21005KT 15/09 A3021 RMK A01 T01530094  RH  068%=      5-min Rain = 0
KQU1 110908Z 21005KT 15/09 A3021 RMK A01 T01530094  RH  068%=      5-min Rain = 0
KQU1 110909Z 21005KT 15/09 A3021 RMK A01 T01530094  RH  068%=      5-min Rain = 0
KQU1 110910Z 21005KT 15/09 A3021 RMK A01 T01530094  RH  068%=      5-min Rain = 0
KQU1 110911Z 21005KT 15/09 A3021 RMK A01 T01530094  RH  068%=      5-min Rain = 0
KQU1 110912Z 21006KT 15/09 A3021 RMK A01 T01530094  RH  068%=      5-min Rain = 0
KQU1 110913Z 21005KT 15/09 A3021 RMK A01 T01520094  RH  068%=      5-min Rain = 0
KQU1 110914Z 21006KT 15/09 A3021 RMK A01 T01520094  RH  068%=      5-min Rain = 0
KQU1 110915Z 21005KT 15/09 A3021 RMK A01 T01510094  RH  068%=      5-min Rain = 0
KQU1 110916Z 21005KT 15/09 A3021 RMK A01 T01510094  RH  069%=      5-min Rain = 0
KQU1 110917Z 21005KT 15/09 A3021 RMK A01 T01510094  RH  069%=      5-min Rain = 0
KQU1 110918Z 21005KT 15/09 A3021 RMK A01 T01500093  RH  069%=      5-min Rain = 0
KQU1 110919Z 21005KT 15/09 A3021 RMK A01 T01500093  RH  069%=      5-min Rain = 0
KQU1 110920Z 21006KT 15/09 A3021 RMK A01 T01500094  RH  069%=      5-min Rain = 0
KQU1 110921Z 21006KT 15/09 A3021 RMK A01 T01490094  RH  069%=      5-min Rain = 0
KQU1 110922Z 21006KT 15/09 A3021 RMK A01 T01490094  RH  069%=      5-min Rain = 0
KQU1 110923Z 21006KT 15/09 A3021 RMK A01 T01490093  RH  070%=      5-min Rain = 0
KQU1 110924Z 21006KT 15/09 A3021 RMK A01 T01480093  RH  070%=      5-min Rain = 0
KQU1 110925Z 22006KT 15/09 A3021 RMK A01 T01480094  RH  070%=      5-min Rain = 0
KQU1 110926Z 22006KT 15/09 A3021 RMK A01 T01480094  RH  070%=      5-min Rain = 0
KQU1 110927Z 22006KT 15/09 A3021 RMK A01 T01470094  RH  070%=      5-min Rain = 0
KQU1 110928Z 22006KT 15/09 A3021 RMK A01 T01470094  RH  070%=      5-min Rain = 0
KQU1 110929Z 22006KT 15/09 A3021 RMK A01 T01470094  RH  070%=      5-min Rain = 0
KQU1 110930Z 22006KT 15/09 A3021 RMK A01 T01480094  RH  070%=      5-min Rain = 0
KQU1 110931Z 22006KT 15/09 A3021 RMK A01 T01480094  RH  070%=      5-min Rain = 0
KQU1 110932Z 22005KT 15/09 A3021 RMK A01 T01480094  RH  070%=      5-min Rain = 0
KQU1 110933Z 23005KT 15/09 A3021 RMK A01 T01480094  RH  070%=      5-min Rain = 0
KQU1 110934Z 23005KT 15/09 A3021 RMK A01 T01480094  RH  070%=      5-min Rain = 0
KQU1 110935Z 23005KT 15/09 A3021 RMK A01 T01480094  RH  070%=      5-min Rain = 0
KQU1 110936Z 23004KT 15/09 A3021 RMK A01 T01490094  RH  070%=      5-min Rain = 0
KQU1 110937Z 23004KT 15/09 A3021 RMK A01 T01490094  RH  070%=      5-min Rain = 0
KQU1 110938Z 23004KT 15/09 A3021 RMK A01 T01500094  RH  069%=      5-min Rain = 0
KQU1 110939Z 24003KT 15/09 A3021 RMK A01 T01510094  RH  069%=      5-min Rain = 0
KQU1 110940Z 23003KT 15/10 A3021 RMK A01 T01520095  RH  068%=      5-min Rain = 0
KQU1 110941Z 23002KT 15/10 A3021 RMK A01 T01530095  RH  068%=      5-min Rain = 0
KQU1 110942Z 23002KT 15/10 A3021 RMK A01 T01540095  RH  068%=      5-min Rain = 0
KQU1 110943Z 22002KT 15/09 A3021 RMK A01 T01530094  RH  068%=      5-min Rain = 0
KQU1 110944Z 22002KT 15/09 A3021 RMK A01 T01530094  RH  068%=      5-min Rain = 0
KQU1 110945Z 22002KT 15/09 A3021 RMK A01 T01530094  RH  068%=      5-min Rain = 0
KQU1 110946Z 22002KT 15/09 A3021 RMK A01 T01530094  RH  068%=      5-min Rain = 0
KQU1 110947Z 22002KT 15/09 A3021 RMK A01 T01530094  RH  068%=      5-min Rain = 0
KQU1 110948Z 22002KT 15/09 A3021 RMK A01 T01530094  RH  068%=      5-min Rain = 0
KQU1 110949Z 22001KT 15/09 A3021 RMK A01 T01540094  RH  067%=      5-min Rain = 0
KQU1 110950Z 24001KT 16/09 A3021 RMK A01 T01550094  RH  067%=      5-min Rain = 0
KQU1 110951Z 24001KT 15/09 A3021 RMK A01 T01540094  RH  067%=      5-min Rain = 0
KQU1 110952Z 24001KT 15/09 A3021 RMK A01 T01530093  RH  067%=      5-min Rain = 0
KQU1 110953Z 24001KT 15/09 A3021 RMK A01 T01530093  RH  068%=      5-min Rain = 0
KQU1 110954Z 24001KT 15/09 A3022 RMK A01 T01520093  RH  068%=      5-min Rain = 0
KQU1 110955Z 26001KT 15/09 A3022 RMK A01 T01510093  RH  068%=      5-min Rain = 0
KQU1 110956Z 26001KT 15/09 A3022 RMK A01 T01490092  RH  069%=      5-min Rain = 0
KQU1 110957Z 27002KT 15/09 A3022 RMK A01 T01480092  RH  069%=      5-min Rain = 0
KQU1 110958Z 26002KT 15/09 A3022 RMK A01 T01460092  RH  070%=      5-min Rain = 0
KQU1 110959Z 25002KT 15/09 A3022 RMK A01 T01450092  RH  070%=      5-min Rain = 0
KQU1 111000Z 25001KT 14/09 A3022 RMK A01 T01440092  RH  071%=      5-min Rain = 0
KQU1 111001Z 24001KT 14/09 A3022 RMK A01 T01430092  RH  071%=      5-min Rain = 0
KQU1 111002Z 24001KT 14/09 A3022 RMK A01 T01430093  RH  072%=      5-min Rain = 0
KQU1 111003Z 23001KT 14/09 A3022 RMK A01 T01430093  RH  072%=      5-min Rain = 0
KQU1 111004Z 23001KT 14/09 A3022 RMK A01 T01420093  RH  072%=      5-min Rain = 0
KQU1 111005Z 23001KT 14/09 A3022 RMK A01 T01420093  RH  072%=      5-min Rain = 0
KQU1 111006Z 21001KT 14/09 A3022 RMK A01 T01410092  RH  072%=      5-min Rain = 0
KQU1 111007Z 20001KT 14/09 A3022 RMK A01 T01410093  RH  073%=      5-min Rain = 0
KQU1 111008Z 20001KT 14/09 A3022 RMK A01 T01420094  RH  073%=      5-min Rain = 0
KQU1 111009Z 20001KT 14/09 A3022 RMK A01 T01440094  RH  072%=      5-min Rain = 0
KQU1 111010Z 20002KT 15/09 A3022 RMK A01 T01450094  RH  072%=      5-min Rain = 0
KQU1 111011Z 20002KT 15/09 A3022 RMK A01 T01450094  RH  071%=      5-min Rain = 0
KQU1 111012Z 20003KT 15/09 A3022 RMK A01 T01450094  RH  071%=      5-min Rain = 0
KQU1 111013Z 20003KT 15/09 A3022 RMK A01 T01450094  RH  071%=      5-min Rain = 0
KQU1 111014Z 20003KT 15/09 A3022 RMK A01 T01450094  RH  071%=      5-min Rain = 0
KQU1 111015Z 20003KT 14/09 A3022 RMK A01 T01440094  RH  072%=      5-min Rain = 0
KQU1 111016Z 20003KT 14/09 A3022 RMK A01 T01440093  RH  072%=      5-min Rain = 0
KQU1 111017Z 20002KT 14/09 A3022 RMK A01 T01420093  RH  072%=      5-min Rain = 0
KQU1 111018Z 20003KT 14/09 A3022 RMK A01 T01400093  RH  073%=      5-min Rain = 0
KQU1 111019Z 20003KT 14/09 A3022 RMK A01 T01390092  RH  073%=      5-min Rain = 0
KQU1 111020Z 20003KT 14/09 A3022 RMK A01 T01370092  RH  074%=      5-min Rain = 0
KQU1 111021Z 19003KT 14/09 A3022 RMK A01 T01360092  RH  075%=      5-min Rain = 0
KQU1 111022Z 19002KT 14/09 A3022 RMK A01 T01350092  RH  075%=      5-min Rain = 0
KQU1 111023Z 19002KT 13/09 A3022 RMK A01 T01340092  RH  076%=      5-min Rain = 0
KQU1 111024Z 19002KT 13/09 A3022 RMK A01 T01330092  RH  076%=      5-min Rain = 0
KQU1 111025Z 19002KT 13/09 A3022 RMK A01 T01320092  RH  076%=      5-min Rain = 0
KQU1 111026Z 19002KT 13/09 A3022 RMK A01 T01320092  RH  077%=      5-min Rain = 0
KQU1 111027Z 19002KT 13/09 A3022 RMK A01 T01310092  RH  077%=      5-min Rain = 0
KQU1 111028Z 19002KT 13/09 A3022 RMK A01 T01310092  RH  077%=      5-min Rain = 0
KQU1 111029Z 19002KT 13/09 A3022 RMK A01 T01300092  RH  077%=      5-min Rain = 0
KQU1 111030Z 19002KT 13/09 A3022 RMK A01 T01300092  RH  077%=      5-min Rain = 0
KQU1 111031Z 19002KT 13/09 A3022 RMK A01 T01310092  RH  077%=      5-min Rain = 0
KQU1 111032Z 20002KT 13/09 A3022 RMK A01 T01310092  RH  077%=      5-min Rain = 0
KQU1 111033Z 20002KT 13/09 A3022 RMK A01 T01310093  RH  077%=      5-min Rain = 0
KQU1 111034Z 21002KT 13/09 A3022 RMK A01 T01310092  RH  078%=      5-min Rain = 0
KQU1 111035Z 21002KT 13/09 A3022 RMK A01 T01300092  RH  078%=      5-min Rain = 0
KQU1 111036Z 21002KT 13/09 A3022 RMK A01 T01300092  RH  078%=      5-min Rain = 0
KQU1 111037Z 21002KT 13/09 A3022 RMK A01 T01290092  RH  078%=      5-min Rain = 0
KQU1 111038Z 21002KT 13/09 A3022 RMK A01 T01280092  RH  078%=      5-min Rain = 0
KQU1 111039Z 21002KT 13/09 A3022 RMK A01 T01280092  RH  079%=      5-min Rain = 0
KQU1 111040Z 21002KT 13/09 A3022 RMK A01 T01280092  RH  079%=      5-min Rain = 0
KQU1 111041Z 21002KT 13/09 A3022 RMK A01 T01270092  RH  079%=      5-min Rain = 0
KQU1 111042Z 22002KT 13/09 A3022 RMK A01 T01270093  RH  079%=      5-min Rain = 0
KQU1 111043Z 22002KT 13/09 A3022 RMK A01 T01270093  RH  080%=      5-min Rain = 0
KQU1 111044Z 22002KT 13/09 A3022 RMK A01 T01270093  RH  080%=      5-min Rain = 0
KQU1 111045Z 22002KT 13/09 A3022 RMK A01 T01270093  RH  080%=      5-min Rain = 0
KQU1 111046Z 22002KT 13/09 A3022 RMK A01 T01270093  RH  080%=      5-min Rain = 0
KQU1 111047Z 23002KT 13/09 A3022 RMK A01 T01270093  RH  080%=      5-min Rain = 0
KQU1 111048Z 23003KT 13/09 A3022 RMK A01 T01280093  RH  080%=      5-min Rain = 0
KQU1 111049Z 23003KT 13/09 A3022 RMK A01 T01280093  RH  079%=      5-min Rain = 0
KQU1 111050Z 23003KT 13/09 A3022 RMK A01 T01290093  RH  079%=      5-min Rain = 0
KQU1 111051Z 23003KT 13/09 A3022 RMK A01 T01290094  RH  079%=      5-min Rain = 0
KQU1 111052Z 23002KT 13/09 A3022 RMK A01 T01300094  RH  079%=      5-min Rain = 0
KQU1 111053Z 23002KT 13/09 A3022 RMK A01 T01300094  RH  079%=      5-min Rain = 0
KQU1 111054Z 23003KT 13/09 A3022 RMK A01 T01310094  RH  078%=      5-min Rain = 0
KQU1 111055Z 23003KT 13/09 A3022 RMK A01 T01320094  RH  078%=      5-min Rain = 0
KQU1 111056Z 22004KT 13/09 A3022 RMK A01 T01330094  RH  077%=      5-min Rain = 0
KQU1 111057Z 22004KT 13/09 A3022 RMK A01 T01330094  RH  077%=      5-min Rain = 0
KQU1 111058Z 22004KT 13/09 A3022 RMK A01 T01330093  RH  077%=      5-min Rain = 0
KQU1 111059Z 22004KT 13/09 A3022 RMK A01 T01330094  RH  077%=      5-min Rain = 0
KQU1 111100Z 22004KT 13/09 A3022 RMK A01 T01330094  RH  077%=      5-min Rain = 0
KQU1 111101Z 22005KT 13/09 A3022 RMK A01 T01330094  RH  077%=      5-min Rain = 0
KQU1 111102Z 22005KT 13/09 A3022 RMK A01 T01320094  RH  077%=      5-min Rain = 0
KQU1 111103Z 23004KT 13/09 A3022 RMK A01 T01320094  RH  077%=      5-min Rain = 0
KQU1 111104Z 23005KT 13/09 A3022 RMK A01 T01320093  RH  078%=      5-min Rain = 0
KQU1 111105Z 23004KT 13/09 A3022 RMK A01 T01310093  RH  078%=      5-min Rain = 0
KQU1 111106Z 24004KT 13/09 A3022 RMK A01 T01310093  RH  078%=      5-min Rain = 0
KQU1 111107Z 24004KT 13/09 A3022 RMK A01 T01310093  RH  078%=      5-min Rain = 0
KQU1 111108Z 24004KT 13/09 A3022 RMK A01 T01310094  RH  078%=      5-min Rain = 0
KQU1 111109Z 24004KT 13/09 A3022 RMK A01 T01310094  RH  078%=      5-min Rain = 0
KQU1 111110Z 24004KT 13/09 A3022 RMK A01 T01310094  RH  078%=      5-min Rain = 0
KQU1 111111Z 24005KT 13/10 A3022 RMK A01 T01320095  RH  078%=      5-min Rain = 0
KQU1 111112Z 23005KT 13/10 A3022 RMK A01 T01320095  RH  078%=      5-min Rain = 0
KQU1 111113Z 23004KT 13/10 A3022 RMK A01 T01320095  RH  078%=      5-min Rain = 0
KQU1 111114Z 23004KT 13/09 A3022 RMK A01 T01320094  RH  078%=      5-min Rain = 0
KQU1 111115Z 23004KT 13/10 A3022 RMK A01 T01320095  RH  078%=      5-min Rain = 0
KQU1 111116Z 23004KT 13/10 A3022 RMK A01 T01320095  RH  078%=      5-min Rain = 0
KQU1 111117Z 24005KT 13/10 A3022 RMK A01 T01320095  RH  078%=      5-min Rain = 0
KQU1 111118Z 23004KT 13/10 A3022 RMK A01 T01320095  RH  078%=      5-min Rain = 0
KQU1 111119Z 24004KT 13/10 A3022 RMK A01 T01320095  RH  078%=      5-min Rain = 0
KQU1 111120Z 24004KT 13/10 A3022 RMK A01 T01320095  RH  078%=      5-min Rain = 0
KQU1 111121Z 24004KT 13/10 A3022 RMK A01 T01320095  RH  078%=      5-min Rain = 0
KQU1 111122Z 24004KT 13/10 A3022 RMK A01 T01320095  RH  078%=      5-min Rain = 0
KQU1 111123Z 24005KT 13/10 A3022 RMK A01 T01330095  RH  078%=      5-min Rain = 0
KQU1 111124Z 24005KT 13/10 A3022 RMK A01 T01330096  RH  078%=      5-min Rain = 0
KQU1 111125Z 24005KT 13/10 A3022 RMK A01 T01340096  RH  078%=      5-min Rain = 0
KQU1 111126Z 24005KT 14/10 A3022 RMK A01 T01350096  RH  077%=      5-min Rain = 0
KQU1 111127Z 24005KT 14/10 A3022 RMK A01 T01350096  RH  077%=      5-min Rain = 0
KQU1 111128Z 24005KT 14/10 A3022 RMK A01 T01350096  RH  077%=      5-min Rain = 0
KQU1 111129Z 24005KT 14/10 A3022 RMK A01 T01350096  RH  077%=      5-min Rain = 0
KQU1 111130Z 24006KT 14/10 A3022 RMK A01 T01350096  RH  077%=      5-min Rain = 0
KQU1 111131Z 24006KT 14/10 A3022 RMK A01 T01360097  RH  077%=      5-min Rain = 0
KQU1 111132Z 23006KT 14/10 A3021 RMK A01 T01370098  RH  077%=      5-min Rain = 0
KQU1 111133Z 23006KT 14/10 A3021 RMK A01 T01390098  RH  077%=      5-min Rain = 0
KQU1 111134Z 23006KT 14/10 A3021 RMK A01 T01400098  RH  076%=      5-min Rain = 0
KQU1 111135Z 23006KT 14/10 A3021 RMK A01 T01410099  RH  076%=      5-min Rain = 0
KQU1 111136Z 23006KT 14/10 A3021 RMK A01 T01420098  RH  075%=      5-min Rain = 0
KQU1 111137Z 23006KT 14/10 A3022 RMK A01 T01420099  RH  075%=      5-min Rain = 0
KQU1 111138Z 23006KT 14/10 A3022 RMK A01 T01430098  RH  075%=      5-min Rain = 0
KQU1 111139Z 22006KT 14/10 A3022 RMK A01 T01430098  RH  074%=      5-min Rain = 0
KQU1 111140Z 22005KT 14/10 A3022 RMK A01 T01440098  RH  074%=      5-min Rain = 0
KQU1 111141Z 22005KT 14/10 A3022 RMK A01 T01440098  RH  074%=      5-min Rain = 0
KQU1 111142Z 22005KT 15/10 A3022 RMK A01 T01450098  RH  073%=      5-min Rain = 0
KQU1 111143Z 22005KT 15/10 A3022 RMK A01 T01450098  RH  073%=      5-min Rain = 0
KQU1 111144Z 22005KT 15/10 A3022 RMK A01 T01450098  RH  073%=      5-min Rain = 0
KQU1 111145Z 22005KT 15/10 A3022 RMK A01 T01450097  RH  073%=      5-min Rain = 0
KQU1 111146Z 22005KT 15/10 A3022 RMK A01 T01450097  RH  073%=      5-min Rain = 0
KQU1 111147Z 22006KT 15/10 A3022 RMK A01 T01450097  RH  073%=      5-min Rain = 0
KQU1 111148Z 22006KT 15/10 A3022 RMK A01 T01450097  RH  073%=      5-min Rain = 0
KQU1 111149Z 22006KT 15/10 A3022 RMK A01 T01450097  RH  073%=      5-min Rain = 0
KQU1 111150Z 22006KT 15/10 A3022 RMK A01 T01450097  RH  073%=      5-min Rain = 0
KQU1 111156Z 22005KT 15/10 A3022 RMK A01 T01460097  RH  072%=      5-min Rain = 0
KQU1 111157Z 23005KT 15/10 A3022 RMK A01 T01460096  RH  072%=      5-min Rain = 0
KQU1 111158Z 23005KT 15/10 A3021 RMK A01 T01450096  RH  072%=      5-min Rain = 0
KQU1 111159Z 22005KT 15/10 A3021 RMK A01 T01450096  RH  072%=      5-min Rain = 0
KQU1 111200Z 22004KT 15/10 A3021 RMK A01 T01450096  RH  073%=      5-min Rain = 0
KQU1 111201Z 22004KT 14/10 A3021 RMK A01 T01440096  RH  073%=      5-min Rain = 0
KQU1 111202Z 22004KT 14/10 A3022 RMK A01 T01440096  RH  073%=      5-min Rain = 0
KQU1 111203Z 22004KT 14/10 A3022 RMK A01 T01440096  RH  073%=      5-min Rain = 0
KQU1 111204Z 22004KT 14/10 A3022 RMK A01 T01440096  RH  073%=      5-min Rain = 0
KQU1 111205Z 22004KT 14/10 A3022 RMK A01 T01440096  RH  073%=      5-min Rain = 0
KQU1 111206Z 22003KT 14/10 A3022 RMK A01 T01440096  RH  073%=      5-min Rain = 0
KQU1 111207Z 21003KT 14/10 A3022 RMK A01 T01440096  RH  073%=      5-min Rain = 0
KQU1 111208Z 21003KT 14/10 A3022 RMK A01 T01440096  RH  073%=      5-min Rain = 0
KQU1 111209Z 21003KT 14/10 A3022 RMK A01 T01440096  RH  073%=      5-min Rain = 0
KQU1 111210Z 20003KT 14/10 A3022 RMK A01 T01440097  RH  073%=      5-min Rain = 0
KQU1 111211Z 20002KT 15/10 A3022 RMK A01 T01450097  RH  073%=      5-min Rain = 0
KQU1 111212Z 20003KT 15/10 A3022 RMK A01 T01450097  RH  073%=      5-min Rain = 0
KQU1 111213Z 21003KT 15/10 A3022 RMK A01 T01450097  RH  073%=      5-min Rain = 0
KQU1 111214Z 21003KT 15/10 A3022 RMK A01 T01450097  RH  073%=      5-min Rain = 0
KQU1 111215Z 21003KT 15/10 A3022 RMK A01 T01460097  RH  072%=      5-min Rain = 0
KQU1 111216Z 21003KT 15/10 A3022 RMK A01 T01460097  RH  072%=      5-min Rain = 0
KQU1 111217Z 21003KT 15/10 A3022 RMK A01 T01460097  RH  072%=      5-min Rain = 0
KQU1 111218Z 22003KT 15/10 A3022 RMK A01 T01460097  RH  072%=      5-min Rain = 0
KQU1 111219Z 22002KT 15/10 A3022 RMK A01 T01460096  RH  072%=      5-min Rain = 0
KQU1 111220Z 22002KT 15/10 A3022 RMK A01 T01460096  RH  072%=      5-min Rain = 0
KQU1 111221Z 22002KT 15/10 A3022 RMK A01 T01460096  RH  072%=      5-min Rain = 0
KQU1 111222Z 21001KT 15/10 A3022 RMK A01 T01460097  RH  072%=      5-min Rain = 0
KQU1 111223Z 21001KT 15/10 A3022 RMK A01 T01460097  RH  072%=      5-min Rain = 0
KQU1 111224Z 22002KT 15/10 A3022 RMK A01 T01460097  RH  072%=      5-min Rain = 0
KQU1 111225Z 21002KT 15/10 A3022 RMK A01 T01470097  RH  072%=      5-min Rain = 0
KQU1 111226Z 21001KT 15/10 A3022 RMK A01 T01480097  RH  072%=      5-min Rain = 0
KQU1 111227Z 21001KT 15/10 A3022 RMK A01 T01480097  RH  072%=      5-min Rain = 0
KQU1 111228Z 21001KT 15/10 A3022 RMK A01 T01480102  RH  074%=      5-min Rain = 0
KQU1 111229Z 21001KT 15/11 A3022 RMK A01 T01490106  RH  075%=      5-min Rain = 0
KQU1 111230Z 20001KT 15/11 A3022 RMK A01 T01490107  RH  076%=      5-min Rain = 0
KQU1 111231Z 20001KT 15/11 A3022 RMK A01 T01490106  RH  076%=      5-min Rain = 0
KQU1 111232Z 21002KT 15/11 A3022 RMK A01 T01490105  RH  075%=      5-min Rain = 0
KQU1 111233Z 21002KT 15/10 A3022 RMK A01 T01490104  RH  075%=      5-min Rain = 0
KQU1 111234Z 21002KT 15/10 A3022 RMK A01 T01490104  RH  074%=      5-min Rain = 0
KQU1 111235Z 21002KT 15/10 A3022 RMK A01 T01490103  RH  074%=      5-min Rain = 0
KQU1 111236Z 21003KT 15/10 A3022 RMK A01 T01490101  RH  073%=      5-min Rain = 0
KQU1 111237Z 21002KT 15/10 A3022 RMK A01 T01490101  RH  073%=      5-min Rain = 0
KQU1 111238Z 22002KT 15/10 A3022 RMK A01 T01490101  RH  073%=      5-min Rain = 0
KQU1 111239Z 22002KT 15/10 A3022 RMK A01 T01490100  RH  072%=      5-min Rain = 0
KQU1 111240Z 21002KT 15/10 A3022 RMK A01 T01490099  RH  072%=      5-min Rain = 0
KQU1 111241Z 21002KT 15/10 A3022 RMK A01 T01490099  RH  072%=      5-min Rain = 0
KQU1 111242Z 21002KT 15/10 A3022 RMK A01 T01480098  RH  072%=      5-min Rain = 0
KQU1 111243Z 21002KT 15/10 A3022 RMK A01 T01480097  RH  071%=      5-min Rain = 0
KQU1 111244Z 21002KT 15/10 A3022 RMK A01 T01470096  RH  072%=      5-min Rain = 0
KQU1 111245Z 21002KT 15/10 A3022 RMK A01 T01460096  RH  072%=      5-min Rain = 0
KQU1 111246Z 22002KT 15/10 A3022 RMK A01 T01460096  RH  072%=      5-min Rain = 0
KQU1 111247Z 22003KT 15/10 A3022 RMK A01 T01450096  RH  072%=      5-min Rain = 0
KQU1 111248Z 23003KT 15/10 A3022 RMK A01 T01460097  RH  072%=      5-min Rain = 0
KQU1 111249Z 23003KT 15/10 A3022 RMK A01 T01460097  RH  072%=      5-min Rain = 0
KQU1 111250Z 23003KT 15/10 A3022 RMK A01 T01460097  RH  072%=      5-min Rain = 0
KQU1 111251Z 24003KT 15/10 A3022 RMK A01 T01470098  RH  073%=      5-min Rain = 0
KQU1 111252Z 24003KT 15/10 A3022 RMK A01 T01470098  RH  072%=      5-min Rain = 0
KQU1 111253Z 24002KT 15/10 A3022 RMK A01 T01480099  RH  073%=      5-min Rain = 0
KQU1 111254Z 25002KT 15/10 A3022 RMK A01 T01480101  RH  073%=      5-min Rain = 0
KQU1 111255Z 25002KT 15/10 A3023 RMK A01 T01490102  RH  074%=      5-min Rain = 0
KQU1 111256Z 24003KT 15/10 A3023 RMK A01 T01490104  RH  075%=      5-min Rain = 0
KQU1 111257Z 24003KT 15/11 A3023 RMK A01 T01490106  RH  075%=      5-min Rain = 0
KQU1 111258Z 24003KT 15/11 A3023 RMK A01 T01500107  RH  076%=      5-min Rain = 0
KQU1 111259Z 23003KT 15/11 A3023 RMK A01 T01510107  RH  075%=      5-min Rain = 0
KQU1 111300Z 23004KT 15/11 A3023 RMK A01 T01520107  RH  074%=      5-min Rain = 0
KQU1 111301Z 22003KT 15/11 A3023 RMK A01 T01540107  RH  074%=      5-min Rain = 0
KQU1 111302Z 22004KT 16/11 A3023 RMK A01 T01560107  RH  073%=      5-min Rain = 0
KQU1 111303Z 22004KT 16/11 A3023 RMK A01 T01570107  RH  072%=      5-min Rain = 0
KQU1 111304Z 21004KT 16/11 A3023 RMK A01 T01590108  RH  072%=      5-min Rain = 0
KQU1 111305Z 21004KT 16/11 A3023 RMK A01 T01600109  RH  072%=      5-min Rain = 0
KQU1 111306Z 21004KT 16/11 A3023 RMK A01 T01610109  RH  071%=      5-min Rain = 0
KQU1 111307Z 21003KT 16/11 A3023 RMK A01 T01630110  RH  071%=      5-min Rain = 0
KQU1 111308Z 21003KT 16/11 A3023 RMK A01 T01640111  RH  071%=      5-min Rain = 0
KQU1 111309Z 21003KT 17/11 A3023 RMK A01 T01650112  RH  071%=      5-min Rain = 0
KQU1 111310Z 22002KT 17/11 A3023 RMK A01 T01660114  RH  071%=      5-min Rain = 0
KQU1 111311Z 23001KT 17/12 A3023 RMK A01 T01670117  RH  072%=      5-min Rain = 0
KQU1 111312Z 23001KT 17/12 A3023 RMK A01 T01680120  RH  073%=      5-min Rain = 0
KQU1 111313Z 23001KT 17/12 A3023 RMK A01 T01680121  RH  073%=      5-min Rain = 0
KQU1 111314Z 23001KT 17/12 A3023 RMK A01 T01690121  RH  073%=      5-min Rain = 0
KQU1 111315Z 26001KT 17/12 A3023 RMK A01 T01690122  RH  074%=      5-min Rain = 0
KQU1 111316Z 28001KT 17/13 A3023 RMK A01 T01690125  RH  075%=      5-min Rain = 0
KQU1 111317Z 29001KT 17/13 A3023 RMK A01 T01700126  RH  075%=      5-min Rain = 0
KQU1 111318Z 33001KT 17/13 A3023 RMK A01 T01700127  RH  076%=      5-min Rain = 0
KQU1 111319Z 36003KT 17/12 A3023 RMK A01 T01700122  RH  074%=      5-min Rain = 0
KQU1 111320Z 34003KT 17/11 A3023 RMK A01 T01680114  RH  070%=      5-min Rain = 0
KQU1 111321Z 33002KT 17/11 A3023 RMK A01 T01670112  RH  070%=      5-min Rain = 0
KQU1 111322Z 34002KT 17/11 A3023 RMK A01 T01660112  RH  070%=      5-min Rain = 0
KQU1 111323Z 34002KT 17/11 A3023 RMK A01 T01660111  RH  070%=      5-min Rain = 0
KQU1 111324Z 35002KT 17/11 A3023 RMK A01 T01670111  RH  069%=      5-min Rain = 0
KQU1 111325Z 36001KT 17/11 A3023 RMK A01 T01670112  RH  070%=      5-min Rain = 0
KQU1 111326Z 35001KT 17/11 A3023 RMK A01 T01680113  RH  070%=      5-min Rain = 0
KQU1 111327Z 35001KT 17/11 A3023 RMK A01 T01680113  RH  070%=      5-min Rain = 0
KQU1 111328Z 34001KT 17/11 A3022 RMK A01 T01680112  RH  069%=      5-min Rain = 0
KQU1 111329Z 35002KT 17/11 A3022 RMK A01 T01680111  RH  069%=      5-min Rain = 0
KQU1 111330Z 00002KT 17/11 A3022 RMK A01 T01680110  RH  069%=      5-min Rain = 0
KQU1 111331Z 36002KT 17/11 A3023 RMK A01 T01670109  RH  069%=      5-min Rain = 0
KQU1 111332Z 00002KT 17/11 A3023 RMK A01 T01670108  RH  068%=      5-min Rain = 0
KQU1 111333Z 00003KT 17/11 A3023 RMK A01 T01670107  RH  068%=      5-min Rain = 0
KQU1 111334Z 01003KT 17/11 A3023 RMK A01 T01670108  RH  068%=      5-min Rain = 0
KQU1 111335Z 01003KT 17/11 A3023 RMK A01 T01680108  RH  068%=      5-min Rain = 0
KQU1 111336Z 01003KT 17/11 A3023 RMK A01 T01680107  RH  067%=      5-min Rain = 0
KQU1 111337Z 01002KT 17/11 A3023 RMK A01 T01690109  RH  067%=      5-min Rain = 0
KQU1 111338Z 01002KT 17/11 A3023 RMK A01 T01700109  RH  067%=      5-min Rain = 0
KQU1 111339Z 01002KT 17/11 A3023 RMK A01 T01710109  RH  067%=      5-min Rain = 0
KQU1 111340Z 01003KT 17/11 A3023 RMK A01 T01710108  RH  066%=      5-min Rain = 0
KQU1 111341Z 01002KT 17/11 A3023 RMK A01 T01720110  RH  067%=      5-min Rain = 0
KQU1 111342Z 03002KT 17/11 A3023 RMK A01 T01730110  RH  066%=      5-min Rain = 0
KQU1 111343Z 02003KT 17/11 A3023 RMK A01 T01730109  RH  066%=      5-min Rain = 0
KQU1 111344Z 02004KT 17/11 A3023 RMK A01 T01730105  RH  064%=      5-min Rain = 0
KQU1 111345Z 01004KT 17/10 A3023 RMK A01 T01730104  RH  064%=      5-min Rain = 0
KQU1 111346Z 01003KT 17/10 A3023 RMK A01 T01720104  RH  064%=      5-min Rain = 0
KQU1 111347Z 01003KT 17/11 A3023 RMK A01 T01730105  RH  064%=      5-min Rain = 0
KQU1 111348Z 00002KT 17/11 A3023 RMK A01 T01730106  RH  065%=      5-min Rain = 0
KQU1 111349Z 01002KT 17/11 A3023 RMK A01 T01730106  RH  064%=      5-min Rain = 0
KQU1 111350Z 01003KT 17/10 A3023 RMK A01 T01740103  RH  063%=      5-min Rain = 0
KQU1 111351Z 01003KT 17/11 A3023 RMK A01 T01740105  RH  064%=      5-min Rain = 0
KQU1 111352Z 01004KT 18/10 A3023 RMK A01 T01750104  RH  063%=      5-min Rain = 0
KQU1 111353Z 00003KT 18/10 A3023 RMK A01 T01750104  RH  063%=      5-min Rain = 0
KQU1 111354Z 01003KT 18/11 A3023 RMK A01 T01760106  RH  063%=      5-min Rain = 0
KQU1 111355Z 02002KT 18/11 A3023 RMK A01 T01770105  RH  063%=      5-min Rain = 0
KQU1 111356Z 02002KT 18/11 A3023 RMK A01 T01770105  RH  062%=      5-min Rain = 0
KQU1 111357Z 02003KT 18/11 A3023 RMK A01 T01780105  RH  062%=      5-min Rain = 0
KQU1 111358Z 03003KT 18/10 A3023 RMK A01 T01780103  RH  061%=      5-min Rain = 0
KQU1 111359Z 02003KT 18/10 A3023 RMK A01 T01790103  RH  061%=      5-min Rain = 0
KQU1 111400Z 02003KT 18/10 A3023 RMK A01 T01780101  RH  061%=      5-min Rain = 0
KQU1 111401Z 01003KT 18/10 A3023 RMK A01 T01790104  RH  062%=      5-min Rain = 0
KQU1 111402Z 03003KT 18/10 A3023 RMK A01 T01790103  RH  061%=      5-min Rain = 0
KQU1 111403Z 03003KT 18/10 A3023 RMK A01 T01790103  RH  061%=      5-min Rain = 0
KQU1 111404Z 02003KT 18/10 A3023 RMK A01 T01800104  RH  061%=      5-min Rain = 0
KQU1 111405Z 03002KT 18/11 A3023 RMK A01 T01800105  RH  061%=      5-min Rain = 0
KQU1 111406Z 01002KT 18/11 A3023 RMK A01 T01810106  RH  061%=      5-min Rain = 0
KQU1 111407Z 03002KT 18/11 A3023 RMK A01 T01820107  RH  062%=      5-min Rain = 0
KQU1 111408Z 02002KT 18/11 A3023 RMK A01 T01830110  RH  062%=      5-min Rain = 0
KQU1 111409Z 35002KT 18/11 A3023 RMK A01 T01840107  RH  061%=      5-min Rain = 0
KQU1 111410Z 02001KT 19/11 A3023 RMK A01 T01850107  RH  060%=      5-min Rain = 0
KQU1 111411Z 02001KT 19/11 A3023 RMK A01 T01850106  RH  060%=      5-min Rain = 0
KQU1 111412Z 02001KT 19/11 A3023 RMK A01 T01860108  RH  060%=      5-min Rain = 0
KQU1 111413Z 04002KT 19/11 A3023 RMK A01 T01870108  RH  060%=      5-min Rain = 0
KQU1 111414Z 03002KT 19/11 A3023 RMK A01 T01880106  RH  059%=      5-min Rain = 0
KQU1 111415Z 03002KT 19/11 A3023 RMK A01 T01880108  RH  060%=      5-min Rain = 0
KQU1 111416Z 02002KT 19/11 A3023 RMK A01 T01880107  RH  059%=      5-min Rain = 0
KQU1 111417Z 02001KT 19/11 A3023 RMK A01 T01890109  RH  060%=      5-min Rain = 0
KQU1 111418Z 04002KT 19/11 A3023 RMK A01 T01900107  RH  059%=      5-min Rain = 0
KQU1 111419Z 03001KT 19/11 A3023 RMK A01 T01900106  RH  058%=      5-min Rain = 0
KQU1 111420Z 04002KT 19/11 A3023 RMK A01 T01900105  RH  058%=      5-min Rain = 0
KQU1 111421Z 04002KT 19/11 A3023 RMK A01 T01910107  RH  058%=      5-min Rain = 0
KQU1 111422Z 03002KT 19/11 A3023 RMK A01 T01920107  RH  058%=      5-min Rain = 0
KQU1 111423Z 04002KT 19/11 A3023 RMK A01 T01930105  RH  057%=      5-min Rain = 0
KQU1 111424Z 03001KT 19/11 A3023 RMK A01 T01940107  RH  057%=      5-min Rain = 0
KQU1 111425Z 03002KT 19/11 A3023 RMK A01 T01940107  RH  057%=      5-min Rain = 0
KQU1 111426Z 02002KT 20/11 A3023 RMK A01 T01950107  RH  057%=      5-min Rain = 0
KQU1 111427Z 02002KT 20/11 A3023 RMK A01 T01950108  RH  057%=      5-min Rain = 0
KQU1 111428Z 01002KT 20/11 A3023 RMK A01 T01950105  RH  056%=      5-min Rain = 0
KQU1 111429Z 01002KT 20/11 A3023 RMK A01 T01950106  RH  056%=      5-min Rain = 0
KQU1 111430Z 02002KT 20/11 A3023 RMK A01 T01950107  RH  057%=      5-min Rain = 0
KQU1 111431Z 02001KT 20/11 A3023 RMK A01 T01960110  RH  057%=      5-min Rain = 0
KQU1 111432Z 01002KT 20/11 A3023 RMK A01 T01980112  RH  058%=      5-min Rain = 0
KQU1 111433Z 03001KT 20/11 A3023 RMK A01 T01990110  RH  057%=      5-min Rain = 0
KQU1 111434Z 04001KT 20/11 A3023 RMK A01 T02000113  RH  057%=      5-min Rain = 0
KQU1 111435Z 03002KT 20/11 A3023 RMK A01 T02010111  RH  056%=      5-min Rain = 0
KQU1 111436Z 06003KT 20/11 A3023 RMK A01 T02020112  RH  056%=      5-min Rain = 0
KQU1 111437Z 09002KT 20/12 A3023 RMK A01 T02030116  RH  057%=      5-min Rain = 0
KQU1 111438Z 11003KT 21/12 A3023 RMK A01 T02050115  RH  056%=      5-min Rain = 0
KQU1 111439Z 11002KT 21/11 A3023 RMK A01 T02070110  RH  054%=      5-min Rain = 0
KQU1 111440Z 11002KT 21/11 A3023 RMK A01 T02080112  RH  054%=      5-min Rain = 0
KQU1 111441Z 09002KT 21/11 A3023 RMK A01 T02090111  RH  053%=      5-min Rain = 0
KQU1 111442Z 09000KT 21/11 A3023 RMK A01 T02100113  RH  054%=      5-min Rain = 0
KQU1 111443Z 14002KT 21/12 A3023 RMK A01 T02110116  RH  055%=      5-min Rain = 0
KQU1 111444Z 13002KT 21/12 A3023 RMK A01 T02130116  RH  054%=      5-min Rain = 0
KQU1 111445Z 09002KT 22/11 A3023 RMK A01 T02150114  RH  052%=      5-min Rain = 0
KQU1 111446Z 09002KT 22/11 A3023 RMK A01 T02160111  RH  051%=      5-min Rain = 0
KQU1 111447Z 09001KT 22/11 A3023 RMK A01 T02160114  RH  052%=      5-min Rain = 0
KQU1 111448Z 08002KT 22/11 A3023 RMK A01 T02170113  RH  052%=      5-min Rain = 0
KQU1 111449Z 06002KT 22/11 A3023 RMK A01 T02170112  RH  051%=      5-min Rain = 0
KQU1 111450Z 07001KT 22/11 A3023 RMK A01 T02170111  RH  051%=      5-min Rain = 0
KQU1 111451Z 00000KT 22/11 A3023 RMK A01 T02170111  RH  051%=      5-min Rain = 0
KQU1 111452Z 02001KT 22/11 A3023 RMK A01 T02160112  RH  052%=      5-min Rain = 0
KQU1 111453Z 01002KT 22/11 A3023 RMK A01 T02160113  RH  052%=      5-min Rain = 0
KQU1 111454Z 02002KT 21/11 A3023 RMK A01 T02140114  RH  053%=      5-min Rain = 0
KQU1 111455Z 01002KT 21/12 A3023 RMK A01 T02140116  RH  053%=      5-min Rain = 0
KQU1 111456Z 01002KT 21/11 A3023 RMK A01 T02140112  RH  052%=      5-min Rain = 0
KQU1 111457Z 03003KT 21/11 A3023 RMK A01 T02140113  RH  053%=      5-min Rain = 0
KQU1 111458Z 03003KT 21/11 A3023 RMK A01 T02140114  RH  053%=      5-min Rain = 0
KQU1 111459Z 04003KT 21/11 A3023 RMK A01 T02140114  RH  053%=      5-min Rain = 0
KQU1 111500Z 05001KT 21/11 A3023 RMK A01 T02140113  RH  053%=      5-min Rain = 0
KQU1 111501Z 05000KT 21/11 A3023 RMK A01 T02140113  RH  052%=      5-min Rain = 0
KQU1 111502Z 33001KT 22/12 A3023 RMK A01 T02160117  RH  053%=      5-min Rain = 0
KQU1 111503Z 01002KT 22/12 A3023 RMK A01 T02180118  RH  053%=      5-min Rain = 0
KQU1 111504Z 35002KT 22/12 A3023 RMK A01 T02200117  RH  052%=      5-min Rain = 0
KQU1 111505Z 00002KT 22/11 A3023 RMK A01 T02200113  RH  051%=      5-min Rain = 0
KQU1 111506Z 02002KT 22/11 A3023 RMK A01 T02200113  RH  051%=      5-min Rain = 0
KQU1 111507Z 02002KT 22/11 A3023 RMK A01 T02200113  RH  051%=      5-min Rain = 0
KQU1 111508Z 02002KT 22/11 A3023 RMK A01 T02200113  RH  051%=      5-min Rain = 0
KQU1 111509Z 00002KT 22/11 A3023 RMK A01 T02190114  RH  051%=      5-min Rain = 0
KQU1 111510Z 01002KT 22/12 A3023 RMK A01 T02190118  RH  052%=      5-min Rain = 0
KQU1 111511Z 02002KT 22/11 A3023 RMK A01 T02200112  RH  050%=      5-min Rain = 0
KQU1 111512Z 03003KT 22/11 A3023 RMK A01 T02210113  RH  050%=      5-min Rain = 0
KQU1 111513Z 02003KT 22/12 A3023 RMK A01 T02210116  RH  051%=      5-min Rain = 0
KQU1 111514Z 03002KT 22/12 A3023 RMK A01 T02210116  RH  051%=      5-min Rain = 0
KQU1 111515Z 02002KT 22/12 A3023 RMK A01 T02210116  RH  051%=      5-min Rain = 0
KQU1 111516Z 02002KT 22/11 A3023 RMK A01 T02220114  RH  050%=      5-min Rain = 0
KQU1 111517Z 01002KT 22/11 A3023 RMK A01 T02220114  RH  050%=      5-min Rain = 0
KQU1 111518Z 00002KT 22/11 A3023 RMK A01 T02220114  RH  051%=      5-min Rain = 0
KQU1 111519Z 36002KT 22/11 A3023 RMK A01 T02220113  RH  050%=      5-min Rain = 0
KQU1 111520Z 01002KT 22/11 A3023 RMK A01 T02220114  RH  050%=      5-min Rain = 0
KQU1 111521Z 01002KT 22/12 A3023 RMK A01 T02230115  RH  050%=      5-min Rain = 0
KQU1 111522Z 02001KT 22/11 A3023 RMK A01 T02230113  RH  050%=      5-min Rain = 0
KQU1 111523Z 02002KT 23/12 A3023 RMK A01 T02250116  RH  050%=      5-min Rain = 0
KQU1 111524Z 02002KT 23/12 A3023 RMK A01 T02260116  RH  050%=      5-min Rain = 0
KQU1 111525Z 02002KT 23/12 A3023 RMK A01 T02270115  RH  049%=      5-min Rain = 0
KQU1 111526Z 03002KT 23/12 A3023 RMK A01 T02280117  RH  050%=      5-min Rain = 0
KQU1 111527Z 04003KT 23/12 A3023 RMK A01 T02280115  RH  049%=      5-min Rain = 0
KQU1 111528Z 04002KT 23/11 A3023 RMK A01 T02290114  RH  048%=      5-min Rain = 0
KQU1 111529Z 03001KT 23/12 A3023 RMK A01 T02300118  RH  049%=      5-min Rain = 0
KQU1 111530Z 04000KT 23/12 A3023 RMK A01 T02320118  RH  049%=      5-min Rain = 0
KQU1 111531Z 16001KT 23/12 A3023 RMK A01 T02340117  RH  048%=      5-min Rain = 0
KQU1 111532Z 18003KT 24/11 A3023 RMK A01 T02350113  RH  046%=      5-min Rain = 0
KQU1 111533Z 21005KT 24/11 A3023 RMK A01 T02360112  RH  046%=      5-min Rain = 0
KQU1 111534Z 21004KT 24/11 A3023 RMK A01 T02360110  RH  045%=      5-min Rain = 0
KQU1 111535Z 22004KT 24/11 A3023 RMK A01 T02370110  RH  045%=      5-min Rain = 0
KQU1 111536Z 22002KT 24/11 A3023 RMK A01 T02380113  RH  045%=      5-min Rain = 0
KQU1 111537Z 18002KT 24/12 A3023 RMK A01 T02400116  RH  046%=      5-min Rain = 0
KQU1 111538Z 19004KT 24/12 A3023 RMK A01 T02420117  RH  046%=      5-min Rain = 0
KQU1 111539Z 20006KT 24/11 A3023 RMK A01 T02420113  RH  044%=      5-min Rain = 0
KQU1 111540Z 20005KT 24/11 A3023 RMK A01 T02410110  RH  044%=      5-min Rain = 0
KQU1 111541Z 20003KT 24/11 A3023 RMK A01 T02410113  RH  045%=      5-min Rain = 0
KQU1 111542Z 18004KT 24/11 A3023 RMK A01 T02410111  RH  044%=      5-min Rain = 0
KQU1 111543Z 18005KT 24/11 A3023 RMK A01 T02410114  RH  045%=      5-min Rain = 0
KQU1 111544Z 16003KT 24/11 A3023 RMK A01 T02410108  RH  043%=      5-min Rain = 0
KQU1 111545Z 18003KT 24/11 A3023 RMK A01 T02400114  RH  045%=      5-min Rain = 0
KQU1 111546Z 19007KT 24/11 A3023 RMK A01 T02410109  RH  043%=      5-min Rain = 0
KQU1 111547Z 20005KT 24/11 A3023 RMK A01 T02410110  RH  044%=      5-min Rain = 0
KQU1 111548Z 20006KT 24/11 A3023 RMK A01 T02420110  RH  044%=      5-min Rain = 0
KQU1 111549Z 21005KT 24/11 A3023 RMK A01 T02430109  RH  043%=      5-min Rain = 0
KQU1 111550Z 23004KT 24/11 A3023 RMK A01 T02430109  RH  043%=      5-min Rain = 0
KQU1 111551Z 20007KT 24/11 A3023 RMK A01 T02440109  RH  043%=      5-min Rain = 0
KQU1 111552Z 18005KT 24/11 A3023 RMK A01 T02440112  RH  043%=      5-min Rain = 0
KQU1 111553Z 19006KT 24/10 A3023 RMK A01 T02440103  RH  041%=      5-min Rain = 0
KQU1 111554Z 15003KT 24/10 A3023 RMK A01 T02430104  RH  042%=      5-min Rain = 0
KQU1 111555Z 10002KT 24/11 A3023 RMK A01 T02440107  RH  042%=      5-min Rain = 0
KQU1 111556Z 23003KT 25/11 A3023 RMK A01 T02460107  RH  042%=      5-min Rain = 0
KQU1 111557Z 23005KT 25/11 A3023 RMK A01 T02470105  RH  041%=      5-min Rain = 0
KQU1 111558Z 22006KT 25/11 A3023 RMK A01 T02480105  RH  041%=      5-min Rain = 0
KQU1 111559Z 20005KT 25/10 A3023 RMK A01 T02480102  RH  040%=      5-min Rain = 0
KQU1 111600Z 20004KT 25/10 A3023 RMK A01 T02480104  RH  040%=      5-min Rain = 0
KQU1 111601Z 22004KT 25/11 A3023 RMK A01 T02490106  RH  040%=      5-min Rain = 0
KQU1 111602Z 25003KT 25/10 A3023 RMK A01 T02490104  RH  040%=      5-min Rain = 0
KQU1 111603Z 28003KT 25/10 A3023 RMK A01 T02490102  RH  040%=      5-min Rain = 0
KQU1 111604Z 28002KT 25/10 A3023 RMK A01 T02480101  RH  039%=      5-min Rain = 0
KQU1 111605Z 22002KT 25/11 A3023 RMK A01 T02490107  RH  041%=      5-min Rain = 0
KQU1 111606Z 23004KT 25/10 A3023 RMK A01 T02510103  RH  039%=      5-min Rain = 0
KQU1 111607Z 21003KT 25/10 A3023 RMK A01 T02500103  RH  039%=      5-min Rain = 0
KQU1 111608Z 18004KT 25/10 A3023 RMK A01 T02510102  RH  039%=      5-min Rain = 0
KQU1 111609Z 18004KT 25/11 A3023 RMK A01 T02510107  RH  040%=      5-min Rain = 0
KQU1 111610Z 23006KT 25/11 A3023 RMK A01 T02520106  RH  040%=      5-min Rain = 0
KQU1 111611Z 23005KT 25/10 A3023 RMK A01 T02520100  RH  038%=      5-min Rain = 0
KQU1 111612Z 23005KT 25/10 A3023 RMK A01 T02510103  RH  039%=      5-min Rain = 0
KQU1 111613Z 24007KT 25/10 A3023 RMK A01 T02520101  RH  039%=      5-min Rain = 0
KQU1 111614Z 23006KT 25/10 A3023 RMK A01 T02520103  RH  039%=      5-min Rain = 0
KQU1 111615Z 26005KT 25/10 A3023 RMK A01 T02520103  RH  039%=      5-min Rain = 0
KQU1 111616Z 26002KT 25/11 A3023 RMK A01 T02520107  RH  040%=      5-min Rain = 0
KQU1 111617Z 22003KT 26/11 A3023 RMK A01 T02550109  RH  040%=      5-min Rain = 0
KQU1 111618Z 24002KT 26/10 A3023 RMK A01 T02560104  RH  039%=      5-min Rain = 0
KQU1 111619Z 27002KT 26/10 A3023 RMK A01 T02560104  RH  038%=      5-min Rain = 0
KQU1 111620Z 26005KT 26/11 A3023 RMK A01 T02570110  RH  040%=      5-min Rain = 0
KQU1 111621Z 26003KT 26/11 A3023 RMK A01 T02600108  RH  039%=      5-min Rain = 0
KQU1 111622Z 22003KT 26/11 A3023 RMK A01 T02600105  RH  038%=      5-min Rain = 0
KQU1 111623Z 22007KT 26/10 A3023 RMK A01 T02600103  RH  037%=      5-min Rain = 0
KQU1 111624Z 22007KT 26/11 A3023 RMK A01 T02590105  RH  038%=      5-min Rain = 0
KQU1 111625Z 23006KT 26/11 A3023 RMK A01 T02590105  RH  038%=      5-min Rain = 0
KQU1 111626Z 26007KT 26/11 A3023 RMK A01 T02600105  RH  038%=      5-min Rain = 0
KQU1 111627Z 26006KT 26/10 A3023 RMK A01 T02580103  RH  038%=      5-min Rain = 0
KQU1 111628Z 23004KT 26/10 A3023 RMK A01 T02590104  RH  038%=      5-min Rain = 0
KQU1 111629Z 23004KT 26/11 A3023 RMK A01 T02590107  RH  038%=      5-min Rain = 0
KQU1 111630Z 23004KT 26/10 A3023 RMK A01 T02590103  RH  037%=      5-min Rain = 0
KQU1 111631Z 24005KT 26/10 A3022 RMK A01 T02600104  RH  038%=      5-min Rain = 0
KQU1 111632Z 21005KT 26/10 A3022 RMK A01 T02600104  RH  038%=      5-min Rain = 0
KQU1 111633Z 19003KT 26/10 A3022 RMK A01 T02590100  RH  037%=      5-min Rain = 0
KQU1 111634Z 10002KT 26/10 A3022 RMK A01 T02590101  RH  037%=      5-min Rain = 0
KQU1 111635Z 05001KT 26/10 A3022 RMK A01 T02600103  RH  037%=      5-min Rain = 0
KQU1 111636Z 19004KT 26/10 A3022 RMK A01 T02600104  RH  038%=      5-min Rain = 0
KQU1 111637Z 20005KT 26/10 A3022 RMK A01 T02610104  RH  037%=      5-min Rain = 0
KQU1 111638Z 24005KT 26/10 A3022 RMK A01 T02610101  RH  037%=      5-min Rain = 0
KQU1 111639Z 26003KT 26/10 A3022 RMK A01 T02600102  RH  037%=      5-min Rain = 0
KQU1 111640Z 24005KT 26/11 A3022 RMK A01 T02600106  RH  038%=      5-min Rain = 0
KQU1 111641Z 22006KT 26/10 A3022 RMK A01 T02610101  RH  036%=      5-min Rain = 0
KQU1 111642Z 22004KT 26/10 A3022 RMK A01 T02610100  RH  036%=      5-min Rain = 0
KQU1 111643Z 19002KT 26/10 A3022 RMK A01 T02600100  RH  036%=      5-min Rain = 0
KQU1 111644Z 21003KT 26/10 A3022 RMK A01 T02610102  RH  037%=      5-min Rain = 0
KQU1 111645Z 20004KT 26/11 A3022 RMK A01 T02620108  RH  038%=      5-min Rain = 0
KQU1 111646Z 21006KT 26/10 A3022 RMK A01 T02620101  RH  036%=      5-min Rain = 0
KQU1 111647Z 19004KT 26/10 A3022 RMK A01 T02620104  RH  037%=      5-min Rain = 0
KQU1 111648Z 17005KT 26/11 A3022 RMK A01 T02630109  RH  038%=      5-min Rain = 0
KQU1 111649Z 16004KT 27/11 A3022 RMK A01 T02650107  RH  037%=      5-min Rain = 0
KQU1 111650Z 14004KT 27/11 A3022 RMK A01 T02660105  RH  036%=      5-min Rain = 0
KQU1 111651Z 18005KT 27/11 A3022 RMK A01 T02670106  RH  037%=      5-min Rain = 0
KQU1 111652Z 16003KT 27/11 A3022 RMK A01 T02660105  RH  036%=      5-min Rain = 0
KQU1 111653Z 12003KT 27/11 A3022 RMK A01 T02670112  RH  038%=      5-min Rain = 0
KQU1 111654Z 08001KT 27/11 A3022 RMK A01 T02680106  RH  036%=      5-min Rain = 0
KQU1 111655Z 29002KT 27/11 A3022 RMK A01 T02690111  RH  037%=      5-min Rain = 0
KQU1 111656Z 26003KT 27/11 A3022 RMK A01 T02700108  RH  036%=      5-min Rain = 0
KQU1 111657Z 25002KT 27/10 A3022 RMK A01 T02700103  RH  035%=      5-min Rain = 0
KQU1 111658Z 30000KT 27/11 A3022 RMK A01 T02710109  RH  036%=      5-min Rain = 0
KQU1 111659Z 18000KT 27/11 A3022 RMK A01 T02740110  RH  036%=      5-min Rain = 0
KQU1 111700Z 23002KT 27/10 A3022 RMK A01 T02740103  RH  034%=      5-min Rain = 0
KQU1 111701Z 25006KT 27/10 A3022 RMK A01 T02740104  RH  035%=      5-min Rain = 0
KQU1 111702Z 26005KT 27/10 A3021 RMK A01 T02720101  RH  034%=      5-min Rain = 0
KQU1 111703Z 27003KT 27/10 A3021 RMK A01 T02700104  RH  035%=      5-min Rain = 0
KQU1 111704Z 22006KT 27/11 A3021 RMK A01 T02720106  RH  036%=      5-min Rain = 0
KQU1 111705Z 24006KT 27/10 A3021 RMK A01 T02720103  RH  035%=      5-min Rain = 0
KQU1 111706Z 25004KT 27/10 A3021 RMK A01 T02710102  RH  035%=      5-min Rain = 0
KQU1 111707Z 23003KT 27/10 A3021 RMK A01 T02700099  RH  034%=      5-min Rain = 0
KQU1 111708Z 23002KT 27/10 A3021 RMK A01 T02700101  RH  035%=      5-min Rain = 0
KQU1 111709Z 22004KT 27/10 A3021 RMK A01 T02710101  RH  034%=      5-min Rain = 0
KQU1 111710Z 24006KT 27/10 A3021 RMK A01 T02710103  RH  035%=      5-min Rain = 0
KQU1 111711Z 23004KT 27/10 A3021 RMK A01 T02710102  RH  035%=      5-min Rain = 0
KQU1 111712Z 23005KT 27/10 A3021 RMK A01 T02710101  RH  034%=      5-min Rain = 0
KQU1 111713Z 23001KT 27/10 A3021 RMK A01 T02700099  RH  034%=      5-min Rain = 0
KQU1 111714Z 21000KT 27/10 A3021 RMK A01 T02700100  RH  034%=      5-min Rain = 0
KQU1 111715Z 15000KT 27/11 A3021 RMK A01 T02720105  RH  035%=      5-min Rain = 0
KQU1 111716Z 00000KT 27/11 A3021 RMK A01 T02740105  RH  035%=      5-min Rain = 0
KQU1 111717Z 09000KT 28/11 A3021 RMK A01 T02770108  RH  035%=      5-min Rain = 0
KQU1 111718Z 07001KT 28/10 A3021 RMK A01 T02790102  RH  033%=      5-min Rain = 0
KQU1 111719Z 25001KT 28/10 A3021 RMK A01 T02780103  RH  033%=      5-min Rain = 0
KQU1 111720Z 26003KT 28/10 A3021 RMK A01 T02760104  RH  034%=      5-min Rain = 0
KQU1 111721Z 25006KT 28/10 A3021 RMK A01 T02750099  RH  033%=      5-min Rain = 0
KQU1 111722Z 25006KT 27/11 A3021 RMK A01 T02740106  RH  035%=      5-min Rain = 0
KQU1 111723Z 25006KT 28/10 A3021 RMK A01 T02760102  RH  034%=      5-min Rain = 0
KQU1 111724Z 28005KT 28/11 A3021 RMK A01 T02760105  RH  034%=      5-min Rain = 0
KQU1 111725Z 29005KT 28/10 A3021 RMK A01 T02760101  RH  034%=      5-min Rain = 0
KQU1 111726Z 25004KT 28/10 A3021 RMK A01 T02750102  RH  034%=      5-min Rain = 0
KQU1 111727Z 25004KT 28/10 A3021 RMK A01 T02750100  RH  033%=      5-min Rain = 0
KQU1 111728Z 24003KT 27/10 A3021 RMK A01 T02730097  RH  033%=      5-min Rain = 0
KQU1 111729Z 24002KT 27/10 A3021 RMK A01 T02720102  RH  034%=      5-min Rain = 0
KQU1 111730Z 25001KT 27/10 A3021 RMK A01 T02730100  RH  034%=      5-min Rain = 0
KQU1 111731Z 08000KT 27/10 A3021 RMK A01 T02720097  RH  033%=      5-min Rain = 0
KQU1 111732Z 12002KT 27/10 A3021 RMK A01 T02730102  RH  034%=      5-min Rain = 0
KQU1 111733Z 10002KT 27/10 A3021 RMK A01 T02740101  RH  034%=      5-min Rain = 0
KQU1 111734Z 10002KT 28/11 A3021 RMK A01 T02760106  RH  035%=      5-min Rain = 0
KQU1 111735Z 11002KT 28/10 A3021 RMK A01 T02770102  RH  033%=      5-min Rain = 0
KQU1 111736Z 11000KT 28/10 A3021 RMK A01 T02780102  RH  033%=      5-min Rain = 0
KQU1 111737Z 28004KT 28/11 A3021 RMK A01 T02790105  RH  034%=      5-min Rain = 0
KQU1 111738Z 30006KT 28/11 A3021 RMK A01 T02780108  RH  035%=      5-min Rain = 0
KQU1 111739Z 27004KT 28/11 A3021 RMK A01 T02800108  RH  034%=      5-min Rain = 0
KQU1 111740Z 28003KT 28/10 A302 RMK A01 T02810103  RH  033%=      5-min Rain = 0
KQU1 111741Z 25002KT 28/10 A302 RMK A01 T02790101  RH  033%=      5-min Rain = 0
KQU1 111742Z 27001KT 28/11 A302 RMK A01 T02800106  RH  034%=      5-min Rain = 0
KQU1 111743Z 31003KT 28/10 A302 RMK A01 T02810104  RH  033%=      5-min Rain = 0
KQU1 111744Z 27001KT 28/10 A302 RMK A01 T02800101  RH  033%=      5-min Rain = 0
KQU1 111745Z 30001KT 28/11 A302 RMK A01 T02820110  RH  034%=      5-min Rain = 0
KQU1 111746Z 29001KT 28/11 A302 RMK A01 T02830111  RH  034%=      5-min Rain = 0
KQU1 111747Z 01001KT 29/11 A302 RMK A01 T02850110  RH  034%=      5-min Rain = 0
KQU1 111748Z 06002KT 29/11 A302 RMK A01 T02860108  RH  033%=      5-min Rain = 0
KQU1 111749Z 08003KT 29/11 A302 RMK A01 T02850107  RH  033%=      5-min Rain = 0
KQU1 111750Z 12002KT 29/11 A302 RMK A01 T02850108  RH  033%=      5-min Rain = 0
KQU1 111751Z 15005KT 29/11 A302 RMK A01 T02850105  RH  033%=      5-min Rain = 0
KQU1 111752Z 16003KT 29/11 A302 RMK A01 T02850106  RH  033%=      5-min Rain = 0
KQU1 111753Z 16003KT 29/11 A302 RMK A01 T02860109  RH  033%=      5-min Rain = 0
KQU1 111754Z 18001KT 29/11 A302 RMK A01 T02860105  RH  032%=      5-min Rain = 0
KQU1 111755Z 12001KT 29/11 A302 RMK A01 T02860105  RH  032%=      5-min Rain = 0
KQU1 111756Z 10001KT 29/10 A302 RMK A01 T02870102  RH  032%=      5-min Rain = 0
KQU1 111757Z 35003KT 29/11 A302 RMK A01 T02870105  RH  032%=      5-min Rain = 0
KQU1 111758Z 35003KT 29/11 A302 RMK A01 T02850111  RH  034%=      5-min Rain = 0
KQU1 111759Z 35004KT 28/11 A302 RMK A01 T02840110  RH  034%=      5-min Rain = 0
KQU1 111800Z 35004KT 28/11 A3019 RMK A01 T02840108  RH  034%=      5-min Rain = 0
KQU1 111801Z 36004KT 28/11 A3019 RMK A01 T02840109  RH  034%=      5-min Rain = 0
KQU1 111802Z 35005KT 29/11 A3019 RMK A01 T02850112  RH  034%=      5-min Rain = 0
KQU1 111803Z 00005KT 29/11 A3019 RMK A01 T02850109  RH  033%=      5-min Rain = 0
KQU1 111804Z 01004KT 29/11 A3019 RMK A01 T02850109  RH  034%=      5-min Rain = 0
KQU1 111805Z 36002KT 29/11 A3019 RMK A01 T02850108  RH  033%=      5-min Rain = 0
KQU1 111806Z 00002KT 29/11 A3019 RMK A01 T02860107  RH  033%=      5-min Rain = 0
KQU1 111807Z 33002KT 29/11 A3019 RMK A01 T02870110  RH  033%=      5-min Rain = 0
KQU1 111808Z 33003KT 29/10 A3019 RMK A01 T02860102  RH  032%=      5-min Rain = 0
KQU1 111809Z 33001KT 28/10 A3019 RMK A01 T02840100  RH  032%=      5-min Rain = 0
KQU1 111810Z 05001KT 28/10 A3019 RMK A01 T02840101  RH  032%=      5-min Rain = 0
KQU1 111811Z 04000KT 29/10 A3019 RMK A01 T02860103  RH  032%=      5-min Rain = 0
KQU1 111812Z 06002KT 29/10 A3019 RMK A01 T02870104  RH  032%=      5-min Rain = 0
KQU1 111813Z 06003KT 29/10 A3019 RMK A01 T02880103  RH  032%=      5-min Rain = 0
KQU1 111814Z 06003KT 29/11 A3019 RMK A01 T02880106  RH  032%=      5-min Rain = 0
KQU1 111815Z 05002KT 29/10 A3019 RMK A01 T02880104  RH  032%=      5-min Rain = 0
KQU1 111816Z 03003KT 29/11 A3019 RMK A01 T02880106  RH  032%=      5-min Rain = 0
KQU1 111817Z 31005KT 29/11 A3018 RMK A01 T02880107  RH  033%=      5-min Rain = 0
KQU1 111818Z 28004KT 29/10 A3019 RMK A01 T02860101  RH  031%=      5-min Rain = 0
KQU1 111819Z 26002KT 29/10 A3018 RMK A01 T02850101  RH  032%=      5-min Rain = 0
KQU1 111820Z 23003KT 29/11 A3018 RMK A01 T02870105  RH  032%=      5-min Rain = 0
KQU1 111821Z 19003KT 29/10 A3018 RMK A01 T02870100  RH  031%=      5-min Rain = 0
KQU1 111822Z 15002KT 29/11 A3018 RMK A01 T02870107  RH  033%=      5-min Rain = 0
KQU1 111823Z 17001KT 29/11 A3018 RMK A01 T02890110  RH  033%=      5-min Rain = 0
KQU1 111824Z 31003KT 29/10 A3018 RMK A01 T02900103  RH  031%=      5-min Rain = 0
KQU1 111825Z 31004KT 29/10 A3018 RMK A01 T02890099  RH  031%=      5-min Rain = 0
KQU1 111826Z 34003KT 29/10 A3018 RMK A01 T02870100  RH  031%=      5-min Rain = 0
KQU1 111827Z 29004KT 29/10 A3018 RMK A01 T02880101  RH  031%=      5-min Rain = 0
KQU1 111828Z 30005KT 29/10 A3018 RMK A01 T02870100  RH  031%=      5-min Rain = 0
KQU1 111829Z 31004KT 29/10 A3018 RMK A01 T02860097  RH  031%=      5-min Rain = 0
KQU1 111830Z 35002KT 29/10 A3018 RMK A01 T02850097  RH  031%=      5-min Rain = 0
KQU1 111831Z 00005KT 29/10 A3018 RMK A01 T02860100  RH  031%=      5-min Rain = 0
KQU1 111832Z 34004KT 29/11 A3018 RMK A01 T02870106  RH  032%=      5-min Rain = 0
KQU1 111833Z 33003KT 29/11 A3018 RMK A01 T02890105  RH  032%=      5-min Rain = 0
KQU1 111834Z 30005KT 29/11 A3018 RMK A01 T02910108  RH  032%=      5-min Rain = 0
KQU1 111835Z 29005KT 29/10 A3018 RMK A01 T02910104  RH  031%=      5-min Rain = 0
KQU1 111836Z 27002KT 29/11 A3018 RMK A01 T02920105  RH  031%=      5-min Rain = 0
KQU1 111837Z 22002KT 29/11 A3018 RMK A01 T02930105  RH  031%=      5-min Rain = 0
KQU1 111838Z 22004KT 29/11 A3018 RMK A01 T02940105  RH  031%=      5-min Rain = 0
KQU1 111839Z 22005KT 30/11 A3018 RMK A01 T02950105  RH  031%=      5-min Rain = 0
KQU1 111840Z 23003KT 30/10 A3018 RMK A01 T02950103  RH  030%=      5-min Rain = 0
KQU1 111841Z 27002KT 30/10 A3017 RMK A01 T02950102  RH  030%=      5-min Rain = 0
KQU1 111842Z 31005KT 29/10 A3017 RMK A01 T02940101  RH  030%=      5-min Rain = 0
KQU1 111843Z 32005KT 29/10 A3017 RMK A01 T02930103  RH  031%=      5-min Rain = 0
KQU1 111844Z 35006KT 29/10 A3017 RMK A01 T02920104  RH  031%=      5-min Rain = 0
KQU1 111845Z 01005KT 29/10 A3017 RMK A01 T02910101  RH  031%=      5-min Rain = 0
KQU1 111846Z 32006KT 29/11 A3017 RMK A01 T02910107  RH  032%=      5-min Rain = 0
KQU1 111847Z 30006KT 29/10 A3017 RMK A01 T02920104  RH  031%=      5-min Rain = 0
KQU1 111848Z 29004KT 29/10 A3017 RMK A01 T02900100  RH  031%=      5-min Rain = 0
KQU1 111849Z 27003KT 29/11 A3017 RMK A01 T02910105  RH  032%=      5-min Rain = 0
KQU1 111850Z 26002KT 29/10 A3017 RMK A01 T02920103  RH  031%=      5-min Rain = 0
KQU1 111851Z 25002KT 29/10 A3017 RMK A01 T02920099  RH  030%=      5-min Rain = 0
KQU1 111852Z 25003KT 29/10 A3017 RMK A01 T02910099  RH  030%=      5-min Rain = 0
KQU1 111853Z 23004KT 29/10 A3017 RMK A01 T02910100  RH  030%=      5-min Rain = 0
KQU1 111854Z 20002KT 29/10 A3017 RMK A01 T02910101  RH  031%=      5-min Rain = 0
KQU1 111855Z 20003KT 29/10 A3017 RMK A01 T02920099  RH  030%=      5-min Rain = 0
KQU1 111856Z 21003KT 29/10 A3017 RMK A01 T02930101  RH  030%=      5-min Rain = 0
KQU1 111857Z 21005KT 29/10 A3017 RMK A01 T02920095  RH  029%=      5-min Rain = 0
KQU1 111858Z 20005KT 29/10 A3017 RMK A01 T02900097  RH  030%=      5-min Rain = 0
KQU1 111859Z 20005KT 29/10 A3017 RMK A01 T02890097  RH  030%=      5-min Rain = 0
KQU1 111900Z 20003KT 29/10 A3017 RMK A01 T02890098  RH  030%=      5-min Rain = 0
KQU1 111901Z 20003KT 29/10 A3017 RMK A01 T02900097  RH  030%=      5-min Rain = 0
KQU1 111902Z 20003KT 29/10 A3017 RMK A01 T02910100  RH  030%=      5-min Rain = 0
KQU1 111903Z 19002KT 29/10 A3017 RMK A01 T02940103  RH  031%=      5-min Rain = 0
KQU1 111904Z 18002KT 30/10 A3017 RMK A01 T02950100  RH  030%=      5-min Rain = 0
KQU1 111905Z 20001KT 30/10 A3017 RMK A01 T02960101  RH  030%=      5-min Rain = 0
KQU1 111906Z 27000KT 30/10 A3017 RMK A01 T02970098  RH  029%=      5-min Rain = 0
KQU1 111907Z 22001KT 30/10 A3017 RMK A01 T02980102  RH  030%=      5-min Rain = 0
KQU1 111908Z 05001KT 30/10 A3017 RMK A01 T03000103  RH  029%=      5-min Rain = 0
KQU1 111909Z 01001KT 30/10 A3017 RMK A01 T03010103  RH  029%=      5-min Rain = 0
KQU1 111910Z 02001KT 30/11 A3017 RMK A01 T03010107  RH  030%=      5-min Rain = 0
KQU1 111911Z 02003KT 30/11 A3017 RMK A01 T03020111  RH  031%=      5-min Rain = 0
KQU1 111912Z 03003KT 30/10 A3016 RMK A01 T03010102  RH  029%=      5-min Rain = 0
KQU1 111913Z 04003KT 30/10 A3016 RMK A01 T02990101  RH  029%=      5-min Rain = 0
KQU1 111914Z 06003KT 30/10 A3016 RMK A01 T02980101  RH  029%=      5-min Rain = 0
KQU1 111915Z 09002KT 30/10 A3016 RMK A01 T02980099  RH  029%=      5-min Rain = 0
KQU1 111916Z 11003KT 30/10 A3016 RMK A01 T02980098  RH  029%=      5-min Rain = 0
KQU1 111917Z 12003KT 30/09 A3016 RMK A01 T02980093  RH  028%=      5-min Rain = 0
KQU1 111918Z 13002KT 30/10 A3016 RMK A01 T02980097  RH  029%=      5-min Rain = 0
KQU1 111919Z 14001KT 30/10 A3016 RMK A01 T02990099  RH  029%=      5-min Rain = 0
KQU1 111920Z 13000KT 30/10 A3016 RMK A01 T03000096  RH  028%=      5-min Rain = 0
KQU1 111921Z 03000KT 30/10 A3016 RMK A01 T03000098  RH  029%=      5-min Rain = 0
KQU1 111922Z 33001KT 30/11 A3016 RMK A01 T03020107  RH  030%=      5-min Rain = 0
KQU1 111923Z 31002KT 30/10 A3016 RMK A01 T03030104  RH  029%=      5-min Rain = 0
KQU1 111924Z 34002KT 30/10 A3016 RMK A01 T03030099  RH  028%=      5-min Rain = 0
KQU1 111925Z 32003KT 30/10 A3016 RMK A01 T03010098  RH  028%=      5-min Rain = 0
KQU1 111926Z 34004KT 30/10 A3016 RMK A01 T02980096  RH  029%=      5-min Rain = 0
KQU1 111927Z 00004KT 30/10 A3016 RMK A01 T02970099  RH  029%=      5-min Rain = 0
KQU1 111928Z 00003KT 30/10 A3015 RMK A01 T02960102  RH  030%=      5-min Rain = 0
KQU1 111929Z 00003KT 30/10 A3015 RMK A01 T02960101  RH  030%=      5-min Rain = 0
KQU1 111930Z 35004KT 30/10 A3015 RMK A01 T02950099  RH  030%=      5-min Rain = 0
KQU1 111931Z 35005KT 29/10 A3015 RMK A01 T02940099  RH  030%=      5-min Rain = 0
KQU1 111932Z 01002KT 29/10 A3015 RMK A01 T02940100  RH  030%=      5-min Rain = 0
KQU1 111933Z 35003KT 30/10 A3015 RMK A01 T02950098  RH  029%=      5-min Rain = 0
KQU1 111934Z 33000KT 30/10 A3015 RMK A01 T02960101  RH  030%=      5-min Rain = 0
KQU1 111935Z 34003KT 30/10 A3015 RMK A01 T02960099  RH  029%=      5-min Rain = 0
KQU1 111936Z 35004KT 30/10 A3015 RMK A01 T02960099  RH  029%=      5-min Rain = 0
KQU1 111937Z 36003KT 30/10 A3015 RMK A01 T02960100  RH  030%=      5-min Rain = 0
KQU1 111938Z 00002KT 30/10 A3015 RMK A01 T02970104  RH  030%=      5-min Rain = 0
KQU1 111939Z 36004KT 30/11 A3015 RMK A01 T02990107  RH  030%=      5-min Rain = 0
KQU1 111940Z 36004KT 30/10 A3015 RMK A01 T02990099  RH  029%=      5-min Rain = 0
KQU1 111941Z 35003KT 30/10 A3015 RMK A01 T02980101  RH  029%=      5-min Rain = 0
KQU1 111942Z 34002KT 30/10 A3015 RMK A01 T02990102  RH  030%=      5-min Rain = 0
KQU1 111943Z 34003KT 30/10 A3015 RMK A01 T02990101  RH  029%=      5-min Rain = 0
KQU1 111944Z 34003KT 30/10 A3015 RMK A01 T02980099  RH  029%=      5-min Rain = 0
KQU1 111945Z 35003KT 30/10 A3015 RMK A01 T02980101  RH  030%=      5-min Rain = 0
KQU1 111946Z 01002KT 30/10 A3015 RMK A01 T02990103  RH  030%=      5-min Rain = 0
KQU1 111947Z 35002KT 30/10 A3015 RMK A01 T02990102  RH  030%=      5-min Rain = 0
KQU1 111948Z 07000KT 30/10 A3015 RMK A01 T02990102  RH  029%=      5-min Rain = 0
KQU1 111949Z 12001KT 30/10 A3015 RMK A01 T03000104  RH  030%=      5-min Rain = 0
KQU1 111950Z 19002KT 30/10 A3015 RMK A01 T03000102  RH  029%=      5-min Rain = 0
KQU1 111951Z 19002KT 30/11 A3015 RMK A01 T03020107  RH  030%=      5-min Rain = 0
KQU1 111952Z 12002KT 31/11 A3015 RMK A01 T03050109  RH  030%=      5-min Rain = 0
KQU1 111953Z 04002KT 31/11 A3015 RMK A01 T03060106  RH  029%=      5-min Rain = 0
KQU1 111954Z 02003KT 31/10 A3014 RMK A01 T03060104  RH  029%=      5-min Rain = 0
KQU1 111955Z 03002KT 30/10 A3014 RMK A01 T03040101  RH  028%=      5-min Rain = 0
KQU1 111956Z 15002G8KT 30/10 A3014 RMK A01 T03030103  RH  029%=      5-min Rain = 0
KQU1 111957Z 16007KT 30/11 A3014 RMK A01 T03040110  RH  030%=      5-min Rain = 0
KQU1 111958Z 18006KT 30/10 A3014 RMK A01 T03040101  RH  029%=      5-min Rain = 0
KQU1 111959Z 17005KT 30/10 A3014 RMK A01 T03020103  RH  029%=      5-min Rain = 0
KQU1 112000Z 16005KT 30/11 A3014 RMK A01 T03030108  RH  030%=      5-min Rain = 0
KQU1 112001Z 18004KT 30/11 A3014 RMK A01 T03040108  RH  030%=      5-min Rain = 0
KQU1 112002Z 18003KT 31/10 A3014 RMK A01 T03050103  RH  029%=      5-min Rain = 0
KQU1 112003Z 18004KT 31/10 A3014 RMK A01 T03050102  RH  029%=      5-min Rain = 0
KQU1 112004Z 19004KT 30/10 A3014 RMK A01 T03040100  RH  028%=      5-min Rain = 0
KQU1 112005Z 20003KT 30/10 A3014 RMK A01 T03030103  RH  029%=      5-min Rain = 0
KQU1 112006Z 21002KT 30/10 A3014 RMK A01 T03040103  RH  029%=      5-min Rain = 0
KQU1 112007Z 19002KT 30/10 A3014 RMK A01 T03040101  RH  028%=      5-min Rain = 0
KQU1 112008Z 19002KT 30/10 A3013 RMK A01 T03040100  RH  028%=      5-min Rain = 0
KQU1 112009Z 16003KT 30/10 A3013 RMK A01 T03040104  RH  029%=      5-min Rain = 0
KQU1 112010Z 14004KT 31/11 A3013 RMK A01 T03060112  RH  030%=      5-min Rain = 0
KQU1 112011Z 16003KT 31/10 A3013 RMK A01 T03070103  RH  028%=      5-min Rain = 0
KQU1 112012Z 18003KT 31/10 A3013 RMK A01 T03070099  RH  028%=      5-min Rain = 0
KQU1 112013Z 11005KT 31/10 A3013 RMK A01 T03070103  RH  028%=      5-min Rain = 0
KQU1 112014Z 13004KT 31/10 A3013 RMK A01 T03070103  RH  028%=      5-min Rain = 0
KQU1 112015Z 14003KT 31/10 A3013 RMK A01 T03070104  RH  028%=      5-min Rain = 0
KQU1 112016Z 10006KT 31/11 A3013 RMK A01 T03080107  RH  029%=      5-min Rain = 0
KQU1 112017Z 09005KT 31/10 A3013 RMK A01 T03080104  RH  028%=      5-min Rain = 0
KQU1 112018Z 07003KT 31/10 A3013 RMK A01 T03080102  RH  028%=      5-min Rain = 0
KQU1 112019Z 09004KT 31/10 A3013 RMK A01 T03080104  RH  028%=      5-min Rain = 0
KQU1 112020Z 11006KT 31/10 A3013 RMK A01 T03070103  RH  028%=      5-min Rain = 0
KQU1 112021Z 12005KT 31/10 A3013 RMK A01 T03070104  RH  028%=      5-min Rain = 0
KQU1 112022Z 13003KT 31/10 A3013 RMK A01 T03080103  RH  028%=      5-min Rain = 0
KQU1 112023Z 13002KT 31/10 A3013 RMK A01 T03090102  RH  028%=      5-min Rain = 0
KQU1 112024Z 15001KT 31/10 A3013 RMK A01 T03100103  RH  028%=      5-min Rain = 0
KQU1 112025Z 14002KT 31/11 A3013 RMK A01 T03110105  RH  028%=      5-min Rain = 0
KQU1 112026Z 13004KT 31/11 A3013 RMK A01 T03120107  RH  028%=      5-min Rain = 0
KQU1 112027Z 11006KT 31/11 A3012 RMK A01 T03130110  RH  029%=      5-min Rain = 0
KQU1 112028Z 09006KT 31/11 A3012 RMK A01 T03130107  RH  028%=      5-min Rain = 0
KQU1 112029Z 10005KT 31/10 A3012 RMK A01 T03120104  RH  028%=      5-min Rain = 0
KQU1 112030Z 10004KT 31/10 A3012 RMK A01 T03100101  RH  028%=      5-min Rain = 0
KQU1 112031Z 13002KT 31/10 A3012 RMK A01 T03080103  RH  028%=      5-min Rain = 0
KQU1 112032Z 15003KT 31/11 A3012 RMK A01 T03090105  RH  029%=      5-min Rain = 0
KQU1 112033Z 17003KT 31/11 A3012 RMK A01 T03100106  RH  028%=      5-min Rain = 0
KQU1 112034Z 17003KT 31/11 A3012 RMK A01 T03100106  RH  028%=      5-min Rain = 0
KQU1 112035Z 20001KT 31/10 A3012 RMK A01 T03110104  RH  028%=      5-min Rain = 0
KQU1 112036Z 24000KT 31/11 A3012 RMK A01 T03120107  RH  028%=      5-min Rain = 0
KQU1 112037Z 24001KT 31/11 A3012 RMK A01 T03140106  RH  028%=      5-min Rain = 0
KQU1 112038Z 31002KT 31/10 A3012 RMK A01 T03140101  RH  027%=      5-min Rain = 0
KQU1 112039Z 34004KT 31/10 A3012 RMK A01 T03130100  RH  027%=      5-min Rain = 0
KQU1 112040Z 31003KT 31/10 A3012 RMK A01 T03100099  RH  027%=      5-min Rain = 0
KQU1 112041Z 33001KT 31/10 A3012 RMK A01 T03090099  RH  027%=      5-min Rain = 0
KQU1 112042Z 30003KT 31/10 A3012 RMK A01 T03080100  RH  028%=      5-min Rain = 0
KQU1 112043Z 27003KT 31/10 A3012 RMK A01 T03080102  RH  028%=      5-min Rain = 0
KQU1 112044Z 25003KT 31/10 A3012 RMK A01 T03060097  RH  027%=      5-min Rain = 0
KQU1 112045Z 22001KT 31/10 A3012 RMK A01 T03060100  RH  028%=      5-min Rain = 0
KQU1 112046Z 12001KT 31/10 A3012 RMK A01 T03080102  RH  028%=      5-min Rain = 0
KQU1 112047Z 24002KT 31/11 A3012 RMK A01 T03100105  RH  028%=      5-min Rain = 0
KQU1 112048Z 25001KT 31/10 A3012 RMK A01 T03110103  RH  028%=      5-min Rain = 0
KQU1 112049Z 32002KT 31/10 A3012 RMK A01 T03120102  RH  027%=      5-min Rain = 0
KQU1 112050Z 34003KT 31/10 A3012 RMK A01 T03120104  RH  028%=      5-min Rain = 0
KQU1 112051Z 35001KT 31/11 A3011 RMK A01 T03120105  RH  028%=      5-min Rain = 0
KQU1 112052Z 31001KT 31/10 A3011 RMK A01 T03120102  RH  027%=      5-min Rain = 0
KQU1 112053Z 31002KT 31/11 A3011 RMK A01 T03120106  RH  028%=      5-min Rain = 0
KQU1 112054Z 36003KT 31/11 A3011 RMK A01 T03130105  RH  028%=      5-min Rain = 0
KQU1 112055Z 35005KT 31/11 A3011 RMK A01 T03130111  RH  029%=      5-min Rain = 0
KQU1 112056Z 35005KT 31/11 A3011 RMK A01 T03120105  RH  028%=      5-min Rain = 0
KQU1 112057Z 34004KT 31/10 A3011 RMK A01 T03100104  RH  028%=      5-min Rain = 0
KQU1 112058Z 34003KT 31/11 A3011 RMK A01 T03100105  RH  028%=      5-min Rain = 0
KQU1 112059Z 34003KT 31/11 A3011 RMK A01 T03100107  RH  029%=      5-min Rain = 0
KQU1 112100Z 35004KT 31/11 A3011 RMK A01 T03100106  RH  028%=      5-min Rain = 0
KQU1 112101Z 35004KT 31/10 A3011 RMK A01 T03090102  RH  028%=      5-min Rain = 0
KQU1 112102Z 01003KT 31/10 A3011 RMK A01 T03100104  RH  028%=      5-min Rain = 0
KQU1 112103Z 02002KT 31/11 A3011 RMK A01 T03100106  RH  028%=      5-min Rain = 0
KQU1 112104Z 36001KT 31/11 A3011 RMK A01 T03110107  RH  028%=      5-min Rain = 0
KQU1 112105Z 05001KT 31/11 A3011 RMK A01 T03110109  RH  029%=      5-min Rain = 0
KQU1 112106Z 07005KT 31/11 A3011 RMK A01 T03120112  RH  029%=      5-min Rain = 0
KQU1 112107Z 11006KT 31/11 A3011 RMK A01 T03130109  RH  029%=      5-min Rain = 0
KQU1 112108Z 10003KT 31/11 A3011 RMK A01 T03120109  RH  029%=      5-min Rain = 0
KQU1 112109Z 07003KT 31/11 A3011 RMK A01 T03120111  RH  029%=      5-min Rain = 0
KQU1 112110Z 06001KT 31/11 A3011 RMK A01 T03130113  RH  029%=      5-min Rain = 0
KQU1 112111Z 06001KT 31/11 A3011 RMK A01 T03140114  RH  029%=      5-min Rain = 0
KQU1 112112Z 03002KT 32/11 A3011 RMK A01 T03150112  RH  029%=      5-min Rain = 0
KQU1 112113Z 02003KT 32/11 A3011 RMK A01 T03150107  RH  028%=      5-min Rain = 0
KQU1 112114Z 04001KT 32/11 A3011 RMK A01 T03150105  RH  027%=      5-min Rain = 0
KQU1 112115Z 04002KT 32/11 A3011 RMK A01 T03150111  RH  028%=      5-min Rain = 0
KQU1 112116Z 04003KT 31/11 A3011 RMK A01 T03140105  RH  028%=      5-min Rain = 0
KQU1 112117Z 06002KT 31/10 A301 RMK A01 T03130104  RH  027%=      5-min Rain = 0
KQU1 112118Z 04002KT 31/11 A301 RMK A01 T03140106  RH  028%=      5-min Rain = 0
KQU1 112119Z 04002KT 31/11 A301 RMK A01 T03140106  RH  028%=      5-min Rain = 0
KQU1 112120Z 35002KT 31/11 A301 RMK A01 T03130110  RH  029%=      5-min Rain = 0
KQU1 112121Z 34004KT 31/11 A301 RMK A01 T03130112  RH  029%=      5-min Rain = 0
KQU1 112122Z 35003KT 31/11 A301 RMK A01 T03130112  RH  029%=      5-min Rain = 0
KQU1 112123Z 34006KT 31/11 A301 RMK A01 T03120108  RH  029%=      5-min Rain = 0
KQU1 112124Z 35005KT 31/10 A301 RMK A01 T03100103  RH  028%=      5-min Rain = 0
KQU1 112125Z 35006KT 31/10 A301 RMK A01 T03090104  RH  028%=      5-min Rain = 0
KQU1 112126Z 00006KT 31/10 A301 RMK A01 T03090104  RH  028%=      5-min Rain = 0
KQU1 112127Z 02004KT 31/11 A301 RMK A01 T03080105  RH  029%=      5-min Rain = 0
KQU1 112128Z 01005KT 31/11 A301 RMK A01 T03080107  RH  029%=      5-min Rain = 0
KQU1 112129Z 36003KT 31/11 A301 RMK A01 T03080106  RH  029%=      5-min Rain = 0
KQU1 112130Z 03001KT 31/11 A301 RMK A01 T03100108  RH  029%=      5-min Rain = 0
KQU1 112131Z 04003KT 31/11 A301 RMK A01 T03120112  RH  029%=      5-min Rain = 0
KQU1 112132Z 03003KT 31/11 A301 RMK A01 T03120111  RH  029%=      5-min Rain = 0
KQU1 112133Z 09007G13KT 31/11 A301 RMK A01 T03110108  RH  029%=      5-min Rain = 0
KQU1 112134Z 07003KT 31/11 A301 RMK A01 T03110111  RH  029%=      5-min Rain = 0
KQU1 112135Z 05004KT 31/11 A301 RMK A01 T03110114  RH  030%=      5-min Rain = 0
KQU1 112136Z 05005KT 31/11 A301 RMK A01 T03110110  RH  029%=      5-min Rain = 0
KQU1 112137Z 05004KT 31/11 A301 RMK A01 T03110108  RH  029%=      5-min Rain = 0
KQU1 112138Z 04004KT 31/11 A301 RMK A01 T03110112  RH  029%=      5-min Rain = 0
KQU1 112139Z 04005KT 31/11 A301 RMK A01 T03110107  RH  028%=      5-min Rain = 0
KQU1 112140Z 01005KT 31/11 A301 RMK A01 T03090106  RH  028%=      5-min Rain = 0
KQU1 112141Z 02004KT 31/11 A301 RMK A01 T03090112  RH  030%=      5-min Rain = 0
KQU1 112142Z 35004KT 31/11 A301 RMK A01 T03090112  RH  030%=      5-min Rain = 0
KQU1 112143Z 36005KT 31/11 A301 RMK A01 T03090108  RH  029%=      5-min Rain = 0
KQU1 112144Z 07005KT 31/11 A301 RMK A01 T03100109  RH  029%=      5-min Rain = 0
KQU1 112145Z 08004KT 31/11 A301 RMK A01 T03090105  RH  028%=      5-min Rain = 0
KQU1 112146Z 10005KT 31/11 A301 RMK A01 T03080106  RH  029%=      5-min Rain = 0
KQU1 112147Z 10007KT 31/11 A301 RMK A01 T03080108  RH  029%=      5-min Rain = 0
KQU1 112148Z 09007KT 31/11 A3009 RMK A01 T03080112  RH  030%=      5-min Rain = 0
KQU1 112149Z 06006KT 31/11 A3009 RMK A01 T03090109  RH  029%=      5-min Rain = 0
KQU1 112150Z 06006KT 31/11 A301 RMK A01 T03100110  RH  029%=      5-min Rain = 0
KQU1 112151Z 08006KT 31/11 A301 RMK A01 T03090105  RH  028%=      5-min Rain = 0
KQU1 112152Z 06006KT 31/11 A301 RMK A01 T03080105  RH  029%=      5-min Rain = 0
KQU1 112153Z 04003KT 31/10 A3009 RMK A01 T03080104  RH  028%=      5-min Rain = 0
KQU1 112154Z 08006KT 31/11 A3009 RMK A01 T03080105  RH  029%=      5-min Rain = 0
KQU1 112155Z 08006KT 31/11 A3009 RMK A01 T03080107  RH  029%=      5-min Rain = 0
KQU1 112156Z 09005KT 31/11 A3009 RMK A01 T03080109  RH  029%=      5-min Rain = 0
KQU1 112157Z 11009KT 31/11 A301 RMK A01 T03090112  RH  030%=      5-min Rain = 0
KQU1 112158Z 11007KT 31/11 A301 RMK A01 T03080109  RH  029%=      5-min Rain = 0
KQU1 112159Z 11005KT 31/11 A301 RMK A01 T03070110  RH  030%=      5-min Rain = 0
KQU1 112200Z 13007KT 31/11 A3009 RMK A01 T03070114  RH  031%=      5-min Rain = 0
KQU1 112201Z 12006KT 31/11 A3009 RMK A01 T03070111  RH  030%=      5-min Rain = 0
KQU1 112202Z 11007KT 31/12 A3009 RMK A01 T03080117  RH  031%=      5-min Rain = 0
KQU1 112203Z 12006KT 31/11 A301 RMK A01 T03090114  RH  030%=      5-min Rain = 0
KQU1 112204Z 10008KT 31/11 A3009 RMK A01 T03090112  RH  030%=      5-min Rain = 0
KQU1 112205Z 10008KT 31/11 A3009 RMK A01 T03080109  RH  029%=      5-min Rain = 0
KQU1 112206Z 14007KT 31/12 A3009 RMK A01 T03070116  RH  031%=      5-min Rain = 0
KQU1 112207Z 15006KT 31/11 A3009 RMK A01 T03070114  RH  030%=      5-min Rain = 0
KQU1 112208Z 14008KT 31/12 A3009 RMK A01 T03080116  RH  031%=      5-min Rain = 0
KQU1 112209Z 14006KT 31/11 A3009 RMK A01 T03090114  RH  030%=      5-min Rain = 0
KQU1 112210Z 15008KT 31/11 A3009 RMK A01 T03090113  RH  030%=      5-min Rain = 0
KQU1 112211Z 15008KT 31/11 A3009 RMK A01 T03080112  RH  030%=      5-min Rain = 0
KQU1 112212Z 15007KT 31/11 A3009 RMK A01 T03080112  RH  030%=      5-min Rain = 0
KQU1 112213Z 15005KT 31/12 A3009 RMK A01 T03090115  RH  030%=      5-min Rain = 0
KQU1 112214Z 14004KT 31/11 A3009 RMK A01 T03100114  RH  030%=      5-min Rain = 0
KQU1 112215Z 14003KT 31/11 A3009 RMK A01 T03100109  RH  029%=      5-min Rain = 0
KQU1 112216Z 13006KT 31/12 A3009 RMK A01 T03100115  RH  030%=      5-min Rain = 0
KQU1 112217Z 14006KT 31/11 A3009 RMK A01 T03100112  RH  030%=      5-min Rain = 0
KQU1 112218Z 13005KT 31/11 A3009 RMK A01 T03090109  RH  029%=      5-min Rain = 0
KQU1 112219Z 13004KT 31/11 A3009 RMK A01 T03090113  RH  030%=      5-min Rain = 0
KQU1 112220Z 14005KT 31/11 A3009 RMK A01 T03100113  RH  030%=      5-min Rain = 0
KQU1 112221Z 13006KT 31/12 A3009 RMK A01 T03100115  RH  030%=      5-min Rain = 0
KQU1 112222Z 12009KT 31/12 A3009 RMK A01 T03110116  RH  030%=      5-min Rain = 0
KQU1 112223Z 12009KT 31/11 A3009 RMK A01 T03100112  RH  030%=      5-min Rain = 0
KQU1 112224Z 11006KT 31/11 A3009 RMK A01 T03080110  RH  030%=      5-min Rain = 0
KQU1 112225Z 13005KT 31/11 A3009 RMK A01 T03060114  RH  031%=      5-min Rain = 0
KQU1 112226Z 14006KT 31/12 A3009 RMK A01 T03070116  RH  031%=      5-min Rain = 0
KQU1 112227Z 14007KT 31/11 A3009 RMK A01 T03070113  RH  030%=      5-min Rain = 0
KQU1 112228Z 15008KT 31/11 A3009 RMK A01 T03070114  RH  030%=      5-min Rain = 0
KQU1 112229Z 13008KT 31/11 A3009 RMK A01 T03070114  RH  030%=      5-min Rain = 0
KQU1 112230Z 09008KT 31/12 A3009 RMK A01 T03070115  RH  031%=      5-min Rain = 0
KQU1 112231Z 07005KT 31/11 A3009 RMK A01 T03070109  RH  030%=      5-min Rain = 0
KQU1 112232Z 09002KT 31/11 A3009 RMK A01 T03060112  RH  030%=      5-min Rain = 0
KQU1 112233Z 13005KT 31/12 A3009 RMK A01 T03070116  RH  031%=      5-min Rain = 0
KQU1 112234Z 13004KT 31/11 A3009 RMK A01 T03080112  RH  030%=      5-min Rain = 0
KQU1 112235Z 13005KT 31/11 A3009 RMK A01 T03090112  RH  030%=      5-min Rain = 0
KQU1 112236Z 15006KT 31/11 A3009 RMK A01 T03080112  RH  030%=      5-min Rain = 0
KQU1 112237Z 12006KT 31/11 A3009 RMK A01 T03080114  RH  030%=      5-min Rain = 0
KQU1 112238Z 12006KT 31/11 A3009 RMK A01 T03070112  RH  030%=      5-min Rain = 0
KQU1 112239Z 15007KT 31/11 A3009 RMK A01 T03070114  RH  031%=      5-min Rain = 0
KQU1 112240Z 14007KT 31/11 A3009 RMK A01 T03060113  RH  030%=      5-min Rain = 0
KQU1 112241Z 13007KT 31/12 A3009 RMK A01 T03060115  RH  031%=      5-min Rain = 0
KQU1 112242Z 13005KT 31/11 A3009 RMK A01 T03060112  RH  030%=      5-min Rain = 0
KQU1 112243Z 12005KT 31/11 A3009 RMK A01 T03060111  RH  030%=      5-min Rain = 0
KQU1 112244Z 12006KT 31/12 A3009 RMK A01 T03060115  RH  031%=      5-min Rain = 0
KQU1 112245Z 11006KT 31/11 A3009 RMK A01 T03060112  RH  030%=      5-min Rain = 0
KQU1 112246Z 09006KT 31/12 A3009 RMK A01 T03050117  RH  031%=      5-min Rain = 0
KQU1 112247Z 09007KT 31/12 A3009 RMK A01 T03050116  RH  031%=      5-min Rain = 0
KQU1 112248Z 10010KT 31/12 A3009 RMK A01 T03050115  RH  031%=      5-min Rain = 0
KQU1 112249Z 11010KT 30/11 A3009 RMK A01 T03040113  RH  031%=      5-min Rain = 0
KQU1 112250Z 11009KT 30/11 A3009 RMK A01 T03020113  RH  031%=      5-min Rain = 0
KQU1 112251Z 11008KT 30/11 A3009 RMK A01 T03020114  RH  031%=      5-min Rain = 0
KQU1 112252Z 11005KT 30/11 A3009 RMK A01 T03010112  RH  031%=      5-min Rain = 0
KQU1 112253Z 11004KT 30/11 A3009 RMK A01 T03020111  RH  031%=      5-min Rain = 0
KQU1 112254Z 12008KT 30/12 A3009 RMK A01 T03020115  RH  032%=      5-min Rain = 0
KQU1 112255Z 13008KT 30/12 A3009 RMK A01 T03020116  RH  032%=      5-min Rain = 0
KQU1 112256Z 14006KT 30/12 A3009 RMK A01 T03020115  RH  032%=      5-min Rain = 0
KQU1 112257Z 13006KT 30/12 A3009 RMK A01 T03030119  RH  032%=      5-min Rain = 0
KQU1 112258Z 12006KT 30/12 A3009 RMK A01 T03030117  RH  032%=      5-min Rain = 0
KQU1 112259Z 12005KT 30/12 A3009 RMK A01 T03030116  RH  032%=      5-min Rain = 0
KQU1 112300Z 12004KT 30/12 A3009 RMK A01 T03030115  RH  031%=      5-min Rain = 0
KQU1 112301Z 14005KT 30/12 A3009 RMK A01 T03030119  RH  032%=      5-min Rain = 0
KQU1 112302Z 12007KT 30/12 A3009 RMK A01 T03030115  RH  031%=      5-min Rain = 0
KQU1 112303Z 13006KT 30/12 A3009 RMK A01 T03030116  RH  032%=      5-min Rain = 0
KQU1 112304Z 14005KT 30/12 A3009 RMK A01 T03030115  RH  031%=      5-min Rain = 0
KQU1 112305Z 13004KT 30/11 A3009 RMK A01 T03030113  RH  031%=      5-min Rain = 0
KQU1 112306Z 12005KT 30/11 A3009 RMK A01 T03040114  RH  031%=      5-min Rain = 0
KQU1 112307Z 12005KT 30/12 A3009 RMK A01 T03040116  RH  031%=      5-min Rain = 0
KQU1 112308Z 12008KT 30/12 A3009 RMK A01 T03040116  RH  031%=      5-min Rain = 0
KQU1 112309Z 09008KT 30/12 A3009 RMK A01 T03030115  RH  031%=      5-min Rain = 0
KQU1 112310Z 09007KT 30/11 A3009 RMK A01 T03020112  RH  031%=      5-min Rain = 0
KQU1 112311Z 10006KT 30/11 A3009 RMK A01 T03010113  RH  031%=      5-min Rain = 0
KQU1 112312Z 11005KT 30/11 A3009 RMK A01 T03010111  RH  031%=      5-min Rain = 0
KQU1 112313Z 11005KT 30/11 A3009 RMK A01 T03000111  RH  031%=      5-min Rain = 0
KQU1 112314Z 11006KT 30/11 A3009 RMK A01 T02990113  RH  032%=      5-min Rain = 0
KQU1 112315Z 11008KT 30/12 A3009 RMK A01 T02990115  RH  032%=      5-min Rain = 0
KQU1 112316Z 11007KT 30/11 A3009 RMK A01 T02980111  RH  031%=      5-min Rain = 0
KQU1 112317Z 10005KT 30/11 A3009 RMK A01 T02980114  RH  032%=      5-min Rain = 0
KQU1 112318Z 12004KT 30/12 A3009 RMK A01 T02980116  RH  033%=      5-min Rain = 0
KQU1 112319Z 12005KT 30/12 A3009 RMK A01 T02980116  RH  033%=      5-min Rain = 0
KQU1 112320Z 11006KT 30/12 A3009 RMK A01 T02990116  RH  032%=      5-min Rain = 0
KQU1 112321Z 11007KT 30/11 A3009 RMK A01 T02990114  RH  032%=      5-min Rain = 0
KQU1 112322Z 11008KT 30/12 A3009 RMK A01 T02980115  RH  032%=      5-min Rain = 0
KQU1 112323Z 10007KT 30/12 A3009 RMK A01 T02970115  RH  032%=      5-min Rain = 0
KQU1 112324Z 09007KT 30/11 A3009 RMK A01 T02970114  RH  032%=      5-min Rain = 0
KQU1 112325Z 10006KT 30/12 A3009 RMK A01 T02970116  RH  033%=      5-min Rain = 0
KQU1 112326Z 10007KT 30/12 A3009 RMK A01 T02970115  RH  033%=      5-min Rain = 0
KQU1 112327Z 09006KT 30/11 A3009 RMK A01 T02960113  RH  032%=      5-min Rain = 0
KQU1 112328Z 09005KT 30/11 A3009 RMK A01 T02960114  RH  032%=      5-min Rain = 0
KQU1 112329Z 11004KT 30/12 A3009 RMK A01 T02960115  RH  033%=      5-min Rain = 0
KQU1 112330Z 11005KT 30/12 A3009 RMK A01 T02970115  RH  033%=      5-min Rain = 0
KQU1 112331Z 12005KT 30/12 A3009 RMK A01 T02970117  RH  033%=      5-min Rain = 0
KQU1 112332Z 12005KT 30/12 A3009 RMK A01 T02970120  RH  034%=      5-min Rain = 0
KQU1 112333Z 11007KT 30/12 A3009 RMK A01 T02970121  RH  034%=      5-min Rain = 0
KQU1 112334Z 11008KT 30/12 A3009 RMK A01 T02970118  RH  033%=      5-min Rain = 0
KQU1 112335Z 12006KT 30/12 A3009 RMK A01 T02960118  RH  033%=      5-min Rain = 0
KQU1 112336Z 11006KT 30/12 A3009 RMK A01 T02950120  RH  034%=      5-min Rain = 0
KQU1 112337Z 11008KT 30/12 A3009 RMK A01 T02950116  RH  033%=      5-min Rain = 0
KQU1 112338Z 10007KT 29/12 A3009 RMK A01 T02940115  RH  033%=      5-min Rain = 0
KQU1 112339Z 10008KT 29/12 A3009 RMK A01 T02930116  RH  033%=      5-min Rain = 0
KQU1 112340Z 09008KT 29/12 A3009 RMK A01 T02930115  RH  033%=      5-min Rain = 0
KQU1 112341Z 09007KT 29/11 A3009 RMK A01 T02920114  RH  033%=      5-min Rain = 0
KQU1 112342Z 09008KT 29/11 A3009 RMK A01 T02920114  RH  033%=      5-min Rain = 0
KQU1 112343Z 09007KT 29/11 A3009 RMK A01 T02920113  RH  033%=      5-min Rain = 0
KQU1 112344Z 10008KT 29/11 A3009 RMK A01 T02910114  RH  033%=      5-min Rain = 0
KQU1 112345Z 09007KT 29/11 A3009 RMK A01 T02910114  RH  033%=      5-min Rain = 0
KQU1 112346Z 10007KT 29/11 A3009 RMK A01 T02900114  RH  033%=      5-min Rain = 0
KQU1 112347Z 10007KT 29/11 A3009 RMK A01 T02900114  RH  034%=      5-min Rain = 0
KQU1 112348Z 10007KT 29/11 A3009 RMK A01 T02900114  RH  034%=      5-min Rain = 0
KQU1 112349Z 10008KT 29/12 A3009 RMK A01 T02900115  RH  034%=      5-min Rain = 0
KQU1 112350Z 10009KT 29/11 A3009 RMK A01 T02890114  RH  034%=      5-min Rain = 0
KQU1 112351Z 10008KT 29/12 A3009 RMK A01 T02890115  RH  034%=      5-min Rain = 0
KQU1 112352Z 10007KT 29/12 A3009 RMK A01 T02880115  RH  034%=      5-min Rain = 0
KQU1 112353Z 10007KT 29/12 A3009 RMK A01 T02880117  RH  035%=      5-min Rain = 0
KQU1 112354Z 10007KT 29/12 A3009 RMK A01 T02880116  RH  034%=      5-min Rain = 0
KQU1 112355Z 10006KT 29/12 A3009 RMK A01 T02870115  RH  034%=      5-min Rain = 0
KQU1 112356Z 11005KT 29/12 A3009 RMK A01 T02870117  RH  035%=      5-min Rain = 0
KQU1 112357Z 11005KT 29/12 A3009 RMK A01 T02870119  RH  035%=      5-min Rain = 0
KQU1 112358Z 11006KT 29/12 A3009 RMK A01 T02870119  RH  035%=      5-min Rain = 0
KQU1 112359Z 11006KT 29/12 A3009 RMK A01 T02870118  RH  035%=      5-min Rain = 0
KQU1 120000Z 11007KT 29/12 A3009 RMK A01 T02870118  RH  035%=      5-min Rain = 0
KQU1 120001Z 11007KT 29/12 A3009 RMK A01 T02860116  RH  035%=      5-min Rain = 0
KQU1 120002Z 11008KT 29/12 A3009 RMK A01 T02850117  RH  035%=      5-min Rain = 0
KQU1 120003Z 11007KT 29/12 A3009 RMK A01 T02850116  RH  035%=      5-min Rain = 0
KQU1 120004Z 11007KT 28/12 A3009 RMK A01 T02840117  RH  035%=      5-min Rain = 0
KQU1 120005Z 11006KT 28/12 A3009 RMK A01 T02840119  RH  036%=      5-min Rain = 0
KQU1 120006Z 12006KT 28/12 A3009 RMK A01 T02840120  RH  036%=      5-min Rain = 0
KQU1 120007Z 12006KT 28/12 A3009 RMK A01 T02830120  RH  036%=      5-min Rain = 0
KQU1 120008Z 11006KT 28/12 A3009 RMK A01 T02830122  RH  037%=      5-min Rain = 0
KQU1 120009Z 11007KT 28/12 A3009 RMK A01 T02820123  RH  037%=      5-min Rain = 0
KQU1 120010Z 11007KT 28/12 A3009 RMK A01 T02810121  RH  037%=      5-min Rain = 0
KQU1 120011Z 11007KT 28/12 A3009 RMK A01 T02800120  RH  037%=      5-min Rain = 0
KQU1 120012Z 11007KT 28/12 A3009 RMK A01 T02800119  RH  037%=      5-min Rain = 0
KQU1 120013Z 11007KT 28/12 A3009 RMK A01 T02790120  RH  037%=      5-min Rain = 0
KQU1 120014Z 11008KT 28/12 A3009 RMK A01 T02790120  RH  037%=      5-min Rain = 0
KQU1 120015Z 11007KT 28/12 A3009 RMK A01 T02780120  RH  038%=      5-min Rain = 0
KQU1 120016Z 11007KT 28/12 A3009 RMK A01 T02770119  RH  037%=      5-min Rain = 0
KQU1 120017Z 11007KT 28/12 A3009 RMK A01 T02770120  RH  038%=      5-min Rain = 0
KQU1 120018Z 11006KT 28/12 A3009 RMK A01 T02770121  RH  038%=      5-min Rain = 0
KQU1 120019Z 11006KT 28/12 A3009 RMK A01 T02760121  RH  038%=      5-min Rain = 0
KQU1 120020Z 11007KT 28/12 A3009 RMK A01 T02760120  RH  038%=      5-min Rain = 0
KQU1 120021Z 12007KT 28/12 A3009 RMK A01 T02750121  RH  038%=      5-min Rain = 0
KQU1 120022Z 12006KT 27/12 A3009 RMK A01 T02740122  RH  039%=      5-min Rain = 0
KQU1 120023Z 12006KT 27/12 A3009 RMK A01 T02740123  RH  039%=      5-min Rain = 0
KQU1 120024Z 12006KT 27/12 A3009 RMK A01 T02740124  RH  039%=      5-min Rain = 0
KQU1 120025Z 12006KT 27/12 A3009 RMK A01 T02730124  RH  040%=      5-min Rain = 0
KQU1 120026Z 11006KT 27/12 A3009 RMK A01 T02720123  RH  040%=      5-min Rain = 0
KQU1 120027Z 11005KT 27/12 A3009 RMK A01 T02710124  RH  040%=      5-min Rain = 0
KQU1 120028Z 11006KT 27/12 A3009 RMK A01 T02700124  RH  040%=      5-min Rain = 0
KQU1 120029Z 11006KT 27/12 A3009 RMK A01 T02700124  RH  040%=      5-min Rain = 0
KQU1 120030Z 11006KT 27/12 A3009 RMK A01 T02690124  RH  041%=      5-min Rain = 0
KQU1 120031Z 11006KT 27/13 A3009 RMK A01 T02680125  RH  041%=      5-min Rain = 0
KQU1 120032Z 11006KT 27/12 A3009 RMK A01 T02670124  RH  041%=      5-min Rain = 0
KQU1 120033Z 11006KT 27/12 A3009 RMK A01 T02670124  RH  041%=      5-min Rain = 0
KQU1 120034Z 11006KT 27/12 A3009 RMK A01 T02660123  RH  041%=      5-min Rain = 0
KQU1 120035Z 11006KT 27/12 A3009 RMK A01 T02650123  RH  041%=      5-min Rain = 0
KQU1 120036Z 11006KT 27/12 A3009 RMK A01 T02650123  RH  041%=      5-min Rain = 0
KQU1 120037Z 12006KT 26/12 A3009 RMK A01 T02640123  RH  042%=      5-min Rain = 0
KQU1 120038Z 12006KT 26/12 A3009 RMK A01 T02630123  RH  042%=      5-min Rain = 0
KQU1 120039Z 12006KT 26/12 A3009 RMK A01 T02630123  RH  042%=      5-min Rain = 0
KQU1 120040Z 12006KT 26/12 A3009 RMK A01 T02620124  RH  042%=      5-min Rain = 0
KQU1 120041Z 12005KT 26/12 A3009 RMK A01 T02610124  RH  043%=      5-min Rain = 0
KQU1 120042Z 12005KT 26/12 A3009 RMK A01 T02600124  RH  043%=      5-min Rain = 0
KQU1 120043Z 12006KT 26/12 A3009 RMK A01 T02590124  RH  043%=      5-min Rain = 0
KQU1 120044Z 12006KT 26/12 A3009 RMK A01 T02580124  RH  043%=      5-min Rain = 0
KQU1 120045Z 12006KT 26/12 A3009 RMK A01 T02570124  RH  044%=      5-min Rain = 0
KQU1 120046Z 12005KT 26/13 A3009 RMK A01 T02550125  RH  044%=      5-min Rain = 0
KQU1 120047Z 13005KT 25/13 A3009 RMK A01 T02540125  RH  045%=      5-min Rain = 0
KQU1 120048Z 13004KT 25/13 A3009 RMK A01 T02530125  RH  045%=      5-min Rain = 0
KQU1 120049Z 12004KT 25/13 A3009 RMK A01 T02520125  RH  045%=      5-min Rain = 0
KQU1 120050Z 12005KT 25/13 A3009 RMK A01 T02510125  RH  045%=      5-min Rain = 0
KQU1 120051Z 13005KT 25/13 A3009 RMK A01 T02500125  RH  046%=      5-min Rain = 0
KQU1 120052Z 12004KT 25/13 A3009 RMK A01 T02490125  RH  046%=      5-min Rain = 0
KQU1 120053Z 12004KT 25/13 A3009 RMK A01 T02480125  RH  046%=      5-min Rain = 0
KQU1 120054Z 13004KT 25/13 A3009 RMK A01 T02470125  RH  046%=      5-min Rain = 0
KQU1 120055Z 13004KT 25/13 A3009 RMK A01 T02470125  RH  047%=      5-min Rain = 0
KQU1 120056Z 13004KT 25/13 A3009 RMK A01 T02460125  RH  047%=      5-min Rain = 0
KQU1 120057Z 13004KT 25/13 A3009 RMK A01 T02450125  RH  047%=      5-min Rain = 0
KQU1 120058Z 13005KT 25/13 A3009 RMK A01 T02450125  RH  047%=      5-min Rain = 0
KQU1 120059Z 13004KT 24/13 A3009 RMK A01 T02440125  RH  048%=      5-min Rain = 0
KQU1 120100Z 14004KT 24/13 A3009 RMK A01 T02430125  RH  048%=      5-min Rain = 0
KQU1 120101Z 14004KT 24/13 A3009 RMK A01 T02430125  RH  048%=      5-min Rain = 0
KQU1 120102Z 14004KT 24/13 A3009 RMK A01 T02430125  RH  048%=      5-min Rain = 0
KQU1 120103Z 14004KT 24/13 A3009 RMK A01 T02420125  RH  048%=      5-min Rain = 0
KQU1 120104Z 15004KT 24/13 A3009 RMK A01 T02420125  RH  048%=      5-min Rain = 0
KQU1 120105Z 15004KT 24/13 A3009 RMK A01 T02410126  RH  048%=      5-min Rain = 0
KQU1 120106Z 15004KT 24/13 A3009 RMK A01 T02400126  RH  049%=      5-min Rain = 0
KQU1 120107Z 14004KT 24/13 A3009 RMK A01 T02390126  RH  049%=      5-min Rain = 0
KQU1 120108Z 14003KT 24/13 A3009 RMK A01 T02380126  RH  049%=      5-min Rain = 0
KQU1 120109Z 15003KT 24/13 A3009 RMK A01 T02390126  RH  049%=      5-min Rain = 0
KQU1 120110Z 14003KT 24/13 A3009 RMK A01 T02390126  RH  049%=      5-min Rain = 0
KQU1 120111Z 14002KT 24/13 A3009 RMK A01 T02400126  RH  049%=      5-min Rain = 0
KQU1 120112Z 14002KT 24/13 A3009 RMK A01 T02400126  RH  049%=      5-min Rain = 0
KQU1 120113Z 14002KT 24/13 A3009 RMK A01 T02400126  RH  049%=      5-min Rain = 0
KQU1 120114Z 13002KT 24/13 A3009 RMK A01 T02400126  RH  049%=      5-min Rain = 0
KQU1 120115Z 13002KT 24/13 A3009 RMK A01 T02390126  RH  049%=      5-min Rain = 0
KQU1 120116Z 13002KT 24/13 A3009 RMK A01 T02390126  RH  049%=      5-min Rain = 0
KQU1 120117Z 12002KT 24/13 A3009 RMK A01 T02380126  RH  049%=      5-min Rain = 0
KQU1 120118Z 12002KT 24/13 A3009 RMK A01 T02380126  RH  050%=      5-min Rain = 0
KQU1 120119Z 12002KT 24/13 A3009 RMK A01 T02370126  RH  050%=      5-min Rain = 0
KQU1 120120Z 13003KT 24/13 A3009 RMK A01 T02380126  RH  050%=      5-min Rain = 0
KQU1 120121Z 13003KT 24/13 A3009 RMK A01 T02380126  RH  049%=      5-min Rain = 0
KQU1 120122Z 13002KT 24/13 A3009 RMK A01 T02380126  RH  050%=      5-min Rain = 0
KQU1 120123Z 14002KT 24/13 A3009 RMK A01 T02380126  RH  049%=      5-min Rain = 0
KQU1 120124Z 15002KT 24/13 A3009 RMK A01 T02380126  RH  050%=      5-min Rain = 0
KQU1 120125Z 17002KT 24/13 A3009 RMK A01 T02370127  RH  050%=      5-min Rain = 0
KQU1 120126Z 18002KT 24/13 A3009 RMK A01 T02350127  RH  051%=      5-min Rain = 0
KQU1 120127Z 18002KT 23/13 A3009 RMK A01 T02340127  RH  051%=      5-min Rain = 0
KQU1 120128Z 18002KT 23/13 A3009 RMK A01 T02320128  RH  052%=      5-min Rain = 0
KQU1 120129Z 18002KT 23/13 A3009 RMK A01 T02310128  RH  052%=      5-min Rain = 0
KQU1 120130Z 17002KT 23/13 A3009 RMK A01 T02290128  RH  053%=      5-min Rain = 0
KQU1 120131Z 18002KT 23/13 A3009 RMK A01 T02290128  RH  053%=      5-min Rain = 0
KQU1 120132Z 17002KT 23/13 A3009 RMK A01 T02280129  RH  053%=      5-min Rain = 0
KQU1 120133Z 17002KT 23/13 A3009 RMK A01 T02280129  RH  054%=      5-min Rain = 0
KQU1 120134Z 17002KT 23/13 A3009 RMK A01 T02280128  RH  054%=      5-min Rain = 0
KQU1 120135Z 16002KT 23/13 A3009 RMK A01 T02280129  RH  053%=      5-min Rain = 0
KQU1 120136Z 16002KT 23/13 A3009 RMK A01 T02280128  RH  053%=      5-min Rain = 0
KQU1 120137Z 16001KT 23/13 A3009 RMK A01 T02290128  RH  053%=      5-min Rain = 0
KQU1 120138Z 15002KT 23/13 A3009 RMK A01 T02300128  RH  053%=      5-min Rain = 0
KQU1 120139Z 15002KT 23/13 A3009 RMK A01 T02310128  RH  052%=      5-min Rain = 0
KQU1 120140Z 15002KT 23/13 A3009 RMK A01 T02310128  RH  052%=      5-min Rain = 0
KQU1 120141Z 16002KT 23/13 A3009 RMK A01 T02310128  RH  052%=      5-min Rain = 0
KQU1 120142Z 15002KT 23/13 A3009 RMK A01 T02320128  RH  052%=      5-min Rain = 0
KQU1 120143Z 16002KT 23/13 A3009 RMK A01 T02320127  RH  052%=      5-min Rain = 0
KQU1 120144Z 17002KT 23/13 A3009 RMK A01 T02320127  RH  052%=      5-min Rain = 0
KQU1 120145Z 18002KT 23/13 A3009 RMK A01 T02310128  RH  052%=      5-min Rain = 0
KQU1 120146Z 18002KT 23/13 A3009 RMK A01 T02300128  RH  053%=      5-min Rain = 0
KQU1 120147Z 18003KT 23/13 A3009 RMK A01 T02280128  RH  053%=      5-min Rain = 0
KQU1 120148Z 19002KT 23/13 A3009 RMK A01 T02260128  RH  054%=      5-min Rain = 0
KQU1 120149Z 19003KT 23/13 A3009 RMK A01 T02260128  RH  054%=      5-min Rain = 0
KQU1 120150Z 18003KT 23/13 A3009 RMK A01 T02250128  RH  054%=      5-min Rain = 0
KQU1 120151Z 18002KT 23/13 A3009 RMK A01 T02250129  RH  054%=      5-min Rain = 0
KQU1 120152Z 18003KT 23/13 A301 RMK A01 T02250129  RH  055%=      5-min Rain = 0
KQU1 120153Z 17003KT 22/13 A301 RMK A01 T02240129  RH  055%=      5-min Rain = 0
KQU1 120154Z 17003KT 22/13 A301 RMK A01 T02230128  RH  055%=      5-min Rain = 0
KQU1 120155Z 16003KT 22/13 A301 RMK A01 T02240128  RH  055%=      5-min Rain = 0
KQU1 120156Z 15002KT 23/13 A301 RMK A01 T02250128  RH  054%=      5-min Rain = 0
KQU1 120157Z 15003KT 23/13 A301 RMK A01 T02250128  RH  054%=      5-min Rain = 0
KQU1 120158Z 14003KT 23/13 A301 RMK A01 T02250128  RH  054%=      5-min Rain = 0
KQU1 120159Z 13003KT 23/13 A301 RMK A01 T02260127  RH  054%=      5-min Rain = 0
KQU1 120200Z 13003KT 23/13 A301 RMK A01 T02260127  RH  053%=      5-min Rain = 0
KQU1 120201Z 13003KT 23/13 A301 RMK A01 T02270127  RH  053%=      5-min Rain = 0
KQU1 120202Z 13004KT 23/13 A301 RMK A01 T02270125  RH  052%=      5-min Rain = 0
KQU1 120203Z 13004KT 23/13 A301 RMK A01 T02280126  RH  052%=      5-min Rain = 0
KQU1 120204Z 14003KT 23/13 A301 RMK A01 T02290125  RH  052%=      5-min Rain = 0
KQU1 120205Z 13004KT 23/13 A301 RMK A01 T02290125  RH  052%=      5-min Rain = 0
KQU1 120206Z 13004KT 23/13 A301 RMK A01 T02300125  RH  052%=      5-min Rain = 0
KQU1 120207Z 14004KT 23/13 A301 RMK A01 T02300125  RH  051%=      5-min Rain = 0
KQU1 120208Z 14004KT 23/13 A301 RMK A01 T02300125  RH  051%=      5-min Rain = 0
KQU1 120209Z 14004KT 23/13 A301 RMK A01 T02300125  RH  051%=      5-min Rain = 0
KQU1 120210Z 14004KT 23/13 A301 RMK A01 T02300125  RH  051%=      5-min Rain = 0
KQU1 120211Z 14004KT 23/13 A301 RMK A01 T02300125  RH  052%=      5-min Rain = 0
KQU1 120212Z 14003KT 23/12 A301 RMK A01 T02290124  RH  051%=      5-min Rain = 0
KQU1 120213Z 14004KT 23/12 A301 RMK A01 T02290124  RH  051%=      5-min Rain = 0
KQU1 120214Z 13004KT 23/12 A301 RMK A01 T02300124  RH  051%=      5-min Rain = 0
KQU1 120215Z 13004KT 23/12 A301 RMK A01 T02300123  RH  051%=      5-min Rain = 0
KQU1 120216Z 13003KT 23/12 A301 RMK A01 T02300124  RH  051%=      5-min Rain = 0
KQU1 120217Z 13004KT 23/12 A301 RMK A01 T02300123  RH  051%=      5-min Rain = 0
KQU1 120218Z 13004KT 23/12 A301 RMK A01 T02300123  RH  051%=      5-min Rain = 0
KQU1 120219Z 13003KT 23/12 A301 RMK A01 T02290123  RH  051%=      5-min Rain = 0
KQU1 120220Z 13004KT 23/12 A301 RMK A01 T02290123  RH  051%=      5-min Rain = 0
KQU1 120221Z 13003KT 23/12 A301 RMK A01 T02290123  RH  051%=      5-min Rain = 0
KQU1 120222Z 14003KT 23/12 A301 RMK A01 T02290123  RH  051%=      5-min Rain = 0
KQU1 120223Z 14003KT 23/12 A301 RMK A01 T02290123  RH  051%=      5-min Rain = 0
KQU1 120224Z 15003KT 23/12 A301 RMK A01 T02300123  RH  051%=      5-min Rain = 0
KQU1 120225Z 17002KT 23/12 A301 RMK A01 T02290123  RH  051%=      5-min Rain = 0
KQU1 120226Z 20002KT 23/12 A301 RMK A01 T02270124  RH  052%=      5-min Rain = 0
KQU1 120227Z 23002KT 22/12 A301 RMK A01 T02230124  RH  053%=      5-min Rain = 0
KQU1 120228Z 22002KT 22/13 A3011 RMK A01 T02200125  RH  055%=      5-min Rain = 0
KQU1 120229Z 21002KT 22/13 A3011 RMK A01 T02170125  RH  056%=      5-min Rain = 0
KQU1 120230Z 22002KT 22/13 A3011 RMK A01 T02150125  RH  057%=      5-min Rain = 0
KQU1 120231Z 20002KT 21/13 A3011 RMK A01 T02140126  RH  057%=      5-min Rain = 0
KQU1 120232Z 20002KT 21/13 A3011 RMK A01 T02130126  RH  058%=      5-min Rain = 0
KQU1 120233Z 19002KT 21/13 A3011 RMK A01 T02120126  RH  058%=      5-min Rain = 0
KQU1 120234Z 19002KT 21/13 A3011 RMK A01 T02110126  RH  058%=      5-min Rain = 0
KQU1 120235Z 18002KT 21/13 A3011 RMK A01 T02110126  RH  058%=      5-min Rain = 0
KQU1 120236Z 19002KT 21/13 A3011 RMK A01 T02110126  RH  058%=      5-min Rain = 0
KQU1 120237Z 20002KT 21/13 A3011 RMK A01 T02110126  RH  058%=      5-min Rain = 0
KQU1 120238Z 18002KT 21/13 A3011 RMK A01 T02110126  RH  058%=      5-min Rain = 0
KQU1 120239Z 18002KT 21/13 A3011 RMK A01 T02120126  RH  058%=      5-min Rain = 0
KQU1 120240Z 17002KT 21/13 A3011 RMK A01 T02120125  RH  058%=      5-min Rain = 0
KQU1 120241Z 19002KT 21/13 A3011 RMK A01 T02130125  RH  057%=      5-min Rain = 0
KQU1 120242Z 17002KT 21/13 A3011 RMK A01 T02140125  RH  057%=      5-min Rain = 0
KQU1 120243Z 16002KT 22/12 A3011 RMK A01 T02150124  RH  056%=      5-min Rain = 0
KQU1 120244Z 16003KT 22/12 A3011 RMK A01 T02170124  RH  055%=      5-min Rain = 0
KQU1 120245Z 15003KT 22/12 A3011 RMK A01 T02180123  RH  055%=      5-min Rain = 0
KQU1 120246Z 15003KT 22/12 A3011 RMK A01 T02200122  RH  053%=      5-min Rain = 0
KQU1 120247Z 14003KT 22/12 A3011 RMK A01 T02230121  RH  053%=      5-min Rain = 0
KQU1 120248Z 14003KT 22/12 A3011 RMK A01 T02240121  RH  052%=      5-min Rain = 0
KQU1 120249Z 15002KT 23/12 A3011 RMK A01 T02250121  RH  052%=      5-min Rain = 0
KQU1 120250Z 15003KT 23/12 A3011 RMK A01 T02250121  RH  052%=      5-min Rain = 0
KQU1 120251Z 15003KT 23/12 A3011 RMK A01 T02260120  RH  051%=      5-min Rain = 0
KQU1 120252Z 16003KT 23/12 A3011 RMK A01 T02260120  RH  051%=      5-min Rain = 0
KQU1 120253Z 16003KT 23/12 A3011 RMK A01 T02270120  RH  051%=      5-min Rain = 0
KQU1 120254Z 16003KT 23/12 A3011 RMK A01 T02270120  RH  051%=      5-min Rain = 0
KQU1 120255Z 16003KT 23/12 A3011 RMK A01 T02260120  RH  051%=      5-min Rain = 0
KQU1 120256Z 16004KT 23/12 A3011 RMK A01 T02260120  RH  051%=      5-min Rain = 0
KQU1 120257Z 16003KT 23/12 A3011 RMK A01 T02250120  RH  051%=      5-min Rain = 0
KQU1 120258Z 17004KT 23/12 A3011 RMK A01 T02250120  RH  052%=      5-min Rain = 0
KQU1 120259Z 17004KT 22/12 A3011 RMK A01 T02240121  RH  052%=      5-min Rain = 0
KQU1 120300Z 17004KT 22/12 A3011 RMK A01 T02230121  RH  052%=      5-min Rain = 0
KQU1 120301Z 17004KT 22/12 A3011 RMK A01 T02220121  RH  052%=      5-min Rain = 0
KQU1 120302Z 18004KT 22/12 A3011 RMK A01 T02210121  RH  053%=      5-min Rain = 0
KQU1 120303Z 19005KT 22/12 A3011 RMK A01 T02190122  RH  054%=      5-min Rain = 0
KQU1 120304Z 19005KT 22/12 A3011 RMK A01 T02160122  RH  055%=      5-min Rain = 0
KQU1 120305Z 19005KT 21/12 A3011 RMK A01 T02140122  RH  056%=      5-min Rain = 0
KQU1 120306Z 18004KT 21/12 A3011 RMK A01 T02130122  RH  056%=      5-min Rain = 0
KQU1 120307Z 18004KT 21/12 A3011 RMK A01 T02120122  RH  056%=      5-min Rain = 0
KQU1 120308Z 17004KT 21/12 A3011 RMK A01 T02120122  RH  056%=      5-min Rain = 0
KQU1 120309Z 17004KT 21/12 A3011 RMK A01 T02130122  RH  056%=      5-min Rain = 0
KQU1 120310Z 17004KT 21/12 A3011 RMK A01 T02130122  RH  056%=      5-min Rain = 0
KQU1 120311Z 17004KT 21/12 A3011 RMK A01 T02140121  RH  056%=      5-min Rain = 0
KQU1 120312Z 17004KT 21/12 A3011 RMK A01 T02140121  RH  056%=      5-min Rain = 0
KQU1 120313Z 17004KT 21/12 A3011 RMK A01 T02140121  RH  056%=      5-min Rain = 0
KQU1 120314Z 18004KT 21/12 A3011 RMK A01 T02130121  RH  056%=      5-min Rain = 0
KQU1 120315Z 18004KT 21/12 A3011 RMK A01 T02120121  RH  056%=      5-min Rain = 0
KQU1 120316Z 17005KT 21/12 A3011 RMK A01 T02110122  RH  057%=      5-min Rain = 0
KQU1 120317Z 17004KT 21/12 A3011 RMK A01 T02100122  RH  057%=      5-min Rain = 0
KQU1 120318Z 17004KT 21/12 A3011 RMK A01 T02100122  RH  057%=      5-min Rain = 0
KQU1 120319Z 18004KT 21/12 A3011 RMK A01 T02090122  RH  058%=      5-min Rain = 0
KQU1 120320Z 17005KT 21/12 A3011 RMK A01 T02080122  RH  058%=      5-min Rain = 0
KQU1 120321Z 17005KT 21/12 A3012 RMK A01 T02070122  RH  058%=      5-min Rain = 0
KQU1 120322Z 17004KT 21/12 A3012 RMK A01 T02070122  RH  058%=      5-min Rain = 0
KQU1 120323Z 17004KT 21/12 A3012 RMK A01 T02070122  RH  058%=      5-min Rain = 0
KQU1 120324Z 17004KT 21/12 A3012 RMK A01 T02070121  RH  058%=      5-min Rain = 0
KQU1 120325Z 18004KT 21/12 A3012 RMK A01 T02070121  RH  058%=      5-min Rain = 0
KQU1 120326Z 19004KT 21/12 A3012 RMK A01 T02060121  RH  058%=      5-min Rain = 0
KQU1 120327Z 20004KT 21/12 A3012 RMK A01 T02050121  RH  059%=      5-min Rain = 0
KQU1 120328Z 20005KT 20/12 A3012 RMK A01 T02040121  RH  059%=      5-min Rain = 0
KQU1 120329Z 20005KT 20/12 A3012 RMK A01 T02020121  RH  060%=      5-min Rain = 0
KQU1 120330Z 20004KT 20/12 A3012 RMK A01 T02010121  RH  060%=      5-min Rain = 0
KQU1 120331Z 20004KT 20/12 A3012 RMK A01 T02010121  RH  060%=      5-min Rain = 0
KQU1 120332Z 20004KT 20/12 A3012 RMK A01 T02000121  RH  060%=      5-min Rain = 0
KQU1 120333Z 20004KT 20/12 A3012 RMK A01 T02000121  RH  061%=      5-min Rain = 0
KQU1 120334Z 21005KT 20/12 A3012 RMK A01 T01990121  RH  061%=      5-min Rain = 0
KQU1 120335Z 21005KT 20/12 A3012 RMK A01 T01990121  RH  061%=      5-min Rain = 0
KQU1 120336Z 21005KT 20/12 A3012 RMK A01 T01980121  RH  061%=      5-min Rain = 0
KQU1 120337Z 21005KT 20/12 A3012 RMK A01 T01980121  RH  061%=      5-min Rain = 0
KQU1 120338Z 21005KT 20/12 A3012 RMK A01 T01970121  RH  061%=      5-min Rain = 0
KQU1 120339Z 21005KT 20/12 A3012 RMK A01 T01970121  RH  061%=      5-min Rain = 0
KQU1 120340Z 21005KT 20/12 A3012 RMK A01 T01970121  RH  061%=      5-min Rain = 0
KQU1 120341Z 21005KT 20/12 A3012 RMK A01 T01980121  RH  061%=      5-min Rain = 0
KQU1 120342Z 21005KT 20/12 A3012 RMK A01 T01980121  RH  061%=      5-min Rain = 0
KQU1 120343Z 21006KT 20/12 A3012 RMK A01 T01980121  RH  061%=      5-min Rain = 0
KQU1 120344Z 21006KT 20/12 A3012 RMK A01 T01980121  RH  061%=      5-min Rain = 0
KQU1 120345Z 21006KT 20/12 A3012 RMK A01 T01990121  RH  061%=      5-min Rain = 0
KQU1 120346Z 21006KT 20/12 A3012 RMK A01 T01990121  RH  061%=      5-min Rain = 0
KQU1 120347Z 20006KT 20/12 A3012 RMK A01 T02000121  RH  060%=      5-min Rain = 0
KQU1 120348Z 20006KT 20/12 A3012 RMK A01 T02010121  RH  060%=      5-min Rain = 0
KQU1 120349Z 20006KT 20/12 A3012 RMK A01 T02010121  RH  060%=      5-min Rain = 0
KQU1 120350Z 20005KT 20/12 A3012 RMK A01 T02020121  RH  060%=      5-min Rain = 0
KQU1 120351Z 21005KT 20/12 A3012 RMK A01 T02030121  RH  059%=      5-min Rain = 0
KQU1 120352Z 20005KT 20/12 A3012 RMK A01 T02030121  RH  059%=      5-min Rain = 0
KQU1 120353Z 20006KT 20/12 A3012 RMK A01 T02030121  RH  060%=      5-min Rain = 0
KQU1 120354Z 20005KT 20/12 A3012 RMK A01 T02020121  RH  060%=      5-min Rain = 0
KQU1 120355Z 20006KT 20/12 A3012 RMK A01 T02030122  RH  060%=      5-min Rain = 0
KQU1 120356Z 20006KT 20/12 A3012 RMK A01 T02020122  RH  060%=      5-min Rain = 0
KQU1 120357Z 20006KT 20/12 A3012 RMK A01 T02020122  RH  060%=      5-min Rain = 0
KQU1 120358Z 20006KT 20/12 A3012 RMK A01 T02020122  RH  060%=      5-min Rain = 0
KQU1 120359Z 20006KT 20/12 A3012 RMK A01 T02020122  RH  060%=      5-min Rain = 0
KQU1 120400Z 20006KT 20/12 A3012 RMK A01 T02020121  RH  060%=      5-min Rain = 0
KQU1 120401Z 20006KT 20/12 A3012 RMK A01 T02030121  RH  059%=      5-min Rain = 0
KQU1 120402Z 19006KT 20/12 A3012 RMK A01 T02030121  RH  059%=      5-min Rain = 0
KQU1 120403Z 19005KT 20/12 A3012 RMK A01 T02030121  RH  059%=      5-min Rain = 0
KQU1 120404Z 20006KT 20/12 A3012 RMK A01 T02040120  RH  059%=      5-min Rain = 0
KQU1 120405Z 20006KT 21/12 A3012 RMK A01 T02050120  RH  058%=      5-min Rain = 0
KQU1 120406Z 20006KT 21/12 A3012 RMK A01 T02050120  RH  058%=      5-min Rain = 0
KQU1 120407Z 19006KT 21/12 A3012 RMK A01 T02050119  RH  058%=      5-min Rain = 0
KQU1 120408Z 19006KT 21/12 A3012 RMK A01 T02070119  RH  057%=      5-min Rain = 0
KQU1 120409Z 19006KT 21/12 A3012 RMK A01 T02080118  RH  056%=      5-min Rain = 0
KQU1 120410Z 19006KT 21/12 A3012 RMK A01 T02090118  RH  056%=      5-min Rain = 0
KQU1 120411Z 20006KT 21/12 A3012 RMK A01 T02090118  RH  056%=      5-min Rain = 0
KQU1 120412Z 19006KT 21/12 A3012 RMK A01 T02090118  RH  056%=      5-min Rain = 0
KQU1 120413Z 19006KT 21/12 A3012 RMK A01 T02090118  RH  056%=      5-min Rain = 0
KQU1 120414Z 19006KT 21/12 A3012 RMK A01 T02090118  RH  056%=      5-min Rain = 0
KQU1 120415Z 19007KT 21/12 A3012 RMK A01 T02090118  RH  056%=      5-min Rain = 0
KQU1 120416Z 19006KT 21/12 A3012 RMK A01 T02090118  RH  056%=      5-min Rain = 0
KQU1 120417Z 19007KT 21/12 A3012 RMK A01 T02100117  RH  055%=      5-min Rain = 0
KQU1 120418Z 18007KT 21/12 A3012 RMK A01 T02100117  RH  055%=      5-min Rain = 0
KQU1 120419Z 18007KT 21/12 A3012 RMK A01 T02110116  RH  055%=      5-min Rain = 0
KQU1 120420Z 17007KT 21/12 A3012 RMK A01 T02110116  RH  055%=      5-min Rain = 0
KQU1 120421Z 17007KT 21/12 A3012 RMK A01 T02100116  RH  055%=      5-min Rain = 0
KQU1 120422Z 18006KT 21/12 A3012 RMK A01 T02100116  RH  055%=      5-min Rain = 0
KQU1 120423Z 18006KT 21/12 A3012 RMK A01 T02090117  RH  056%=      5-min Rain = 0
KQU1 120424Z 18006KT 21/12 A3012 RMK A01 T02070117  RH  056%=      5-min Rain = 0
KQU1 120425Z 18006KT 21/12 A3012 RMK A01 T02060116  RH  056%=      5-min Rain = 0
KQU1 120426Z 18006KT 21/12 A3012 RMK A01 T02060116  RH  056%=      5-min Rain = 0
KQU1 120427Z 18006KT 21/12 A3012 RMK A01 T02060116  RH  056%=      5-min Rain = 0
KQU1 120428Z 18006KT 21/12 A3012 RMK A01 T02060116  RH  056%=      5-min Rain = 0
KQU1 120429Z 19006KT 21/12 A3012 RMK A01 T02050116  RH  057%=      5-min Rain = 0
KQU1 120430Z 19006KT 20/12 A3012 RMK A01 T02040116  RH  057%=      5-min Rain = 0
KQU1 120431Z 18007KT 20/12 A3012 RMK A01 T02040116  RH  057%=      5-min Rain = 0
KQU1 120432Z 18006KT 21/12 A3012 RMK A01 T02050116  RH  057%=      5-min Rain = 0
KQU1 120433Z 19006KT 21/12 A3012 RMK A01 T02050116  RH  057%=      5-min Rain = 0
KQU1 120434Z 19006KT 21/12 A3012 RMK A01 T02050116  RH  057%=      5-min Rain = 0
KQU1 120435Z 18006KT 20/12 A3012 RMK A01 T02040116  RH  057%=      5-min Rain = 0
KQU1 120436Z 18006KT 20/12 A3012 RMK A01 T02040116  RH  057%=      5-min Rain = 0
KQU1 120437Z 18006KT 20/12 A3012 RMK A01 T02030116  RH  057%=      5-min Rain = 0
KQU1 120438Z 18006KT 20/12 A3012 RMK A01 T02030116  RH  057%=      5-min Rain = 0
KQU1 120439Z 19006KT 20/12 A3012 RMK A01 T02030116  RH  057%=      5-min Rain = 0
KQU1 120440Z 18006KT 20/12 A3012 RMK A01 T02030116  RH  057%=      5-min Rain = 0
KQU1 120441Z 19006KT 20/12 A3012 RMK A01 T02030116  RH  057%=      5-min Rain = 0
KQU1 120442Z 18006KT 20/12 A3012 RMK A01 T02030116  RH  057%=      5-min Rain = 0
KQU1 120443Z 19006KT 20/12 A3012 RMK A01 T02030116  RH  057%=      5-min Rain = 0
KQU1 120444Z 18006KT 20/12 A3012 RMK A01 T02020116  RH  057%=      5-min Rain = 0
KQU1 120445Z 19006KT 20/12 A3012 RMK A01 T02020116  RH  057%=      5-min Rain = 0
KQU1 120446Z 19006KT 20/12 A3012 RMK A01 T02020116  RH  058%=      5-min Rain = 0
KQU1 120447Z 19006KT 20/12 A3012 RMK A01 T02010116  RH  058%=      5-min Rain = 0
KQU1 120448Z 19006KT 20/12 A3012 RMK A01 T02010116  RH  058%=      5-min Rain = 0
KQU1 120449Z 19006KT 20/12 A3012 RMK A01 T02000116  RH  058%=      5-min Rain = 0
KQU1 120450Z 19006KT 20/12 A3012 RMK A01 T01990116  RH  058%=      5-min Rain = 0
KQU1 120451Z 19006KT 20/12 A3012 RMK A01 T01990115  RH  058%=      5-min Rain = 0
KQU1 120452Z 19006KT 20/12 A3012 RMK A01 T01990116  RH  059%=      5-min Rain = 0
KQU1 120453Z 20006KT 20/12 A3012 RMK A01 T01980116  RH  059%=      5-min Rain = 0
KQU1 120454Z 20006KT 20/12 A3012 RMK A01 T01970115  RH  059%=      5-min Rain = 0
KQU1 120455Z 20006KT 20/12 A3012 RMK A01 T01970115  RH  059%=      5-min Rain = 0
KQU1 120456Z 20006KT 20/12 A3012 RMK A01 T01960115  RH  059%=      5-min Rain = 0
KQU1 120457Z 20006KT 20/12 A3012 RMK A01 T01960115  RH  060%=      5-min Rain = 0
KQU1 120458Z 19006KT 20/12 A3012 RMK A01 T01960115  RH  059%=      5-min Rain = 0
KQU1 120459Z 19007KT 20/11 A3012 RMK A01 T01980114  RH  059%=      5-min Rain = 0

Page generated in 0.1691 seconds.